<?xml version="1.0" encoding="UTF-8" standalone="no" ?>
<gpx xmlns="http://www.topografix.com/GPX/1/1" xmlns:xsi="http://www.w3.org/2001/XMLSchema-instance" xsi:schemaLocation="http://www.topografix.com/GPX/1/1 http://www.topografix.com/GPX/1/1/gpx.xsd" version="1.1" creator="VisuGPX - https://www.visugpx.com">
  <metadata>
    <name>retour via mont de naisey</name>
  </metadata>
  <trk>
    <name><![CDATA[retour via mont de naisey_1]]></name>
    <trkseg>
      <trkpt lat="47.16924" lon="6.21333">
        <ele>564.4</ele>
        <time>2020-09-07T06:30:00.000Z</time>
        <extensions>
          <visugpx:TrkExtension xmlns:visugpx="https://www.visugpx.com/editgpx/">
            <visugpx:node>6</visugpx:node>
            </visugpx:TrkExtension>
        </extensions>
      </trkpt>
      <trkpt lat="47.16924" lon="6.21333">
        <ele>564.4</ele>
        <time>2020-09-07T06:30:00.000Z</time>
      </trkpt>
      <trkpt lat="47.16929" lon="6.21326">
        <ele>564.7</ele>
        <time>2020-09-07T06:30:04.176Z</time>
      </trkpt>
      <trkpt lat="47.16941" lon="6.21326">
        <ele>564.9</ele>
        <time>2020-09-07T06:30:09.333Z</time>
      </trkpt>
      <trkpt lat="47.1695" lon="6.2133">
        <ele>564.9</ele>
        <time>2020-09-07T06:30:12.756Z</time>
      </trkpt>
      <trkpt lat="47.16975" lon="6.21328">
        <ele>564.8</ele>
        <time>2020-09-07T06:30:21.347Z</time>
      </trkpt>
      <trkpt lat="47.16989" lon="6.21358">
        <ele>563</ele>
        <time>2020-09-07T06:30:24.592Z</time>
      </trkpt>
      <trkpt lat="47.17002" lon="6.21397">
        <ele>561.7</ele>
        <time>2020-09-07T06:30:28.877Z</time>
      </trkpt>
      <trkpt lat="47.17015" lon="6.21434">
        <ele>561.4</ele>
        <time>2020-09-07T06:30:34.795Z</time>
      </trkpt>
      <trkpt lat="47.17024" lon="6.21465">
        <ele>561.2</ele>
        <time>2020-09-07T06:30:39.706Z</time>
      </trkpt>
      <trkpt lat="47.17041" lon="6.21514">
        <ele>561.7</ele>
        <time>2020-09-07T06:30:55.224Z</time>
      </trkpt>
      <trkpt lat="47.17069" lon="6.21568">
        <ele>562.2</ele>
        <time>2020-09-07T06:31:13.887Z</time>
      </trkpt>
      <trkpt lat="47.17103" lon="6.21624">
        <ele>562.2</ele>
        <time>2020-09-07T06:31:32.473Z</time>
      </trkpt>
      <trkpt lat="47.1712" lon="6.2165">
        <ele>562</ele>
        <time>2020-09-07T06:31:37.769Z</time>
      </trkpt>
      <trkpt lat="47.17143" lon="6.21663">
        <ele>562.1</ele>
        <time>2020-09-07T06:31:47.087Z</time>
      </trkpt>
      <trkpt lat="47.17177" lon="6.21676">
        <ele>562.5</ele>
        <time>2020-09-07T06:32:01.369Z</time>
      </trkpt>
      <trkpt lat="47.17185" lon="6.21682">
        <ele>562.8</ele>
        <time>2020-09-07T06:32:06.080Z</time>
      </trkpt>
      <trkpt lat="47.17191" lon="6.21691">
        <ele>562.9</ele>
        <time>2020-09-07T06:32:09.574Z</time>
      </trkpt>
      <trkpt lat="47.17193" lon="6.21704">
        <ele>563</ele>
        <time>2020-09-07T06:32:13.244Z</time>
      </trkpt>
      <trkpt lat="47.172" lon="6.21713">
        <ele>563.1</ele>
        <time>2020-09-07T06:32:16.999Z</time>
      </trkpt>
      <trkpt lat="47.17217" lon="6.21736">
        <ele>563.4</ele>
        <time>2020-09-07T06:32:26.545Z</time>
      </trkpt>
      <trkpt lat="47.17243" lon="6.21757">
        <ele>563.9</ele>
        <time>2020-09-07T06:32:39.318Z</time>
      </trkpt>
      <trkpt lat="47.17249" lon="6.21775">
        <ele>563</ele>
        <time>2020-09-07T06:32:40.964Z</time>
      </trkpt>
      <trkpt lat="47.17257" lon="6.21797">
        <ele>565.1</ele>
        <time>2020-09-07T06:33:01.877Z</time>
      </trkpt>
      <trkpt lat="47.17274" lon="6.21831">
        <ele>564.7</ele>
        <time>2020-09-07T06:33:07.621Z</time>
      </trkpt>
      <trkpt lat="47.17292" lon="6.21857">
        <ele>564</ele>
        <time>2020-09-07T06:33:11.922Z</time>
      </trkpt>
      <trkpt lat="47.17319" lon="6.21892">
        <ele>564.3</ele>
        <time>2020-09-07T06:33:26.109Z</time>
      </trkpt>
      <trkpt lat="47.17324" lon="6.21902">
        <ele>564.4</ele>
        <time>2020-09-07T06:33:29.556Z</time>
      </trkpt>
      <trkpt lat="47.17329" lon="6.21911">
        <ele>564.7</ele>
        <time>2020-09-07T06:33:33.967Z</time>
      </trkpt>
      <trkpt lat="47.17356" lon="6.21989">
        <ele>566.8</ele>
        <time>2020-09-07T06:34:05.983Z</time>
      </trkpt>
      <trkpt lat="47.17358" lon="6.21993">
        <ele>566.9</ele>
        <time>2020-09-07T06:34:07.670Z</time>
      </trkpt>
      <trkpt lat="47.17361" lon="6.22">
        <ele>567</ele>
        <time>2020-09-07T06:34:10.117Z</time>
      </trkpt>
      <trkpt lat="47.17366" lon="6.22008">
        <ele>567.3</ele>
        <time>2020-09-07T06:34:14.400Z</time>
      </trkpt>
      <trkpt lat="47.17368" lon="6.2201">
        <ele>567.4</ele>
        <time>2020-09-07T06:34:15.817Z</time>
      </trkpt>
      <trkpt lat="47.17379" lon="6.22025">
        <ele>567.8</ele>
        <time>2020-09-07T06:34:23.044Z</time>
      </trkpt>
      <trkpt lat="47.174" lon="6.2205">
        <ele>568.2</ele>
        <time>2020-09-07T06:34:34.424Z</time>
      </trkpt>
      <trkpt lat="47.17403" lon="6.22055">
        <ele>568.3</ele>
        <time>2020-09-07T06:34:36.493Z</time>
      </trkpt>
      <trkpt lat="47.17406" lon="6.2206">
        <ele>568.3</ele>
        <time>2020-09-07T06:34:38.144Z</time>
      </trkpt>
      <trkpt lat="47.17412" lon="6.22052">
        <ele>568.4</ele>
        <time>2020-09-07T06:34:41.469Z</time>
      </trkpt>
      <trkpt lat="47.17434" lon="6.22004">
        <ele>570.1</ele>
        <time>2020-09-07T06:35:05.181Z</time>
      </trkpt>
      <trkpt lat="47.17468" lon="6.21945">
        <ele>572.7</ele>
        <time>2020-09-07T06:35:38.537Z</time>
      </trkpt>
      <trkpt lat="47.1755" lon="6.21797">
        <ele>580.7</ele>
        <time>2020-09-07T06:37:07.994Z</time>
      </trkpt>
      <trkpt lat="47.17554" lon="6.21792">
        <ele>580.9</ele>
        <time>2020-09-07T06:37:10.930Z</time>
      </trkpt>
      <trkpt lat="47.17559" lon="6.2179">
        <ele>581</ele>
        <time>2020-09-07T06:37:13.222Z</time>
      </trkpt>
      <trkpt lat="47.17569" lon="6.21789">
        <ele>581.3</ele>
        <time>2020-09-07T06:37:18.250Z</time>
      </trkpt>
      <trkpt lat="47.17719" lon="6.21818">
        <ele>601.3</ele>
        <time>2020-09-07T06:40:47.001Z</time>
      </trkpt>
      <trkpt lat="47.17742" lon="6.21802">
        <ele>602.1</ele>
        <time>2020-09-07T06:41:00.012Z</time>
      </trkpt>
      <trkpt lat="47.17757" lon="6.21792">
        <ele>601.4</ele>
        <time>2020-09-07T06:41:02.435Z</time>
      </trkpt>
      <trkpt lat="47.1779" lon="6.21828">
        <ele>601</ele>
        <time>2020-09-07T06:41:11.121Z</time>
      </trkpt>
      <trkpt lat="47.1783" lon="6.21871">
        <ele>602.8</ele>
        <time>2020-09-07T06:41:38.158Z</time>
      </trkpt>
      <trkpt lat="47.1786" lon="6.21882">
        <ele>601.6</ele>
        <time>2020-09-07T06:41:42.869Z</time>
      </trkpt>
      <trkpt lat="47.17889" lon="6.21873">
        <ele>601.1</ele>
        <time>2020-09-07T06:41:48.591Z</time>
      </trkpt>
      <trkpt lat="47.17916" lon="6.21852">
        <ele>601</ele>
        <time>2020-09-07T06:41:59.180Z</time>
      </trkpt>
      <trkpt lat="47.18028" lon="6.2184">
        <ele>618.2</ele>
        <time>2020-09-07T06:44:36.899Z</time>
      </trkpt>
      <trkpt lat="47.1803" lon="6.2182">
        <ele>621.1</ele>
        <time>2020-09-07T06:44:56.197Z</time>
      </trkpt>
      <trkpt lat="47.18026" lon="6.21778">
        <ele>622</ele>
        <time>2020-09-07T06:45:10.897Z</time>
      </trkpt>
      <trkpt lat="47.18103" lon="6.21786">
        <ele>636.8</ele>
        <time>2020-09-07T06:46:59.311Z</time>
      </trkpt>
      <trkpt lat="47.18161" lon="6.21777">
        <ele>640.6</ele>
        <time>2020-09-07T06:47:40.538Z</time>
      </trkpt>
      <trkpt lat="47.18295" lon="6.21831">
        <ele>655.3</ele>
        <time>2020-09-07T06:49:59.984Z</time>
      </trkpt>
      <trkpt lat="47.18348" lon="6.21874">
        <ele>661.3</ele>
        <time>2020-09-07T06:50:56.815Z</time>
      </trkpt>
      <trkpt lat="47.18346" lon="6.2193">
        <ele>666.5</ele>
        <time>2020-09-07T06:51:50.344Z</time>
      </trkpt>
      <trkpt lat="47.18341" lon="6.21937">
        <ele>666.6</ele>
        <time>2020-09-07T06:51:53.242Z</time>
      </trkpt>
      <trkpt lat="47.18337" lon="6.21947">
        <ele>666.8</ele>
        <time>2020-09-07T06:51:56.982Z</time>
      </trkpt>
      <trkpt lat="47.18338" lon="6.21963">
        <ele>667</ele>
        <time>2020-09-07T06:52:01.760Z</time>
      </trkpt>
      <trkpt lat="47.18343" lon="6.21981">
        <ele>667.2</ele>
        <time>2020-09-07T06:52:07.347Z</time>
      </trkpt>
      <trkpt lat="47.18365" lon="6.22034">
        <ele>669.1</ele>
        <time>2020-09-07T06:52:33.371Z</time>
      </trkpt>
      <trkpt lat="47.18372" lon="6.22044">
        <ele>669.4</ele>
        <time>2020-09-07T06:52:38.316Z</time>
      </trkpt>
      <trkpt lat="47.18392" lon="6.22061">
        <ele>670.5</ele>
        <time>2020-09-07T06:52:52.797Z</time>
      </trkpt>
      <trkpt lat="47.184" lon="6.22075">
        <ele>671.5</ele>
        <time>2020-09-07T06:53:02.684Z</time>
      </trkpt>
      <trkpt lat="47.18409" lon="6.22083">
        <ele>672.8</ele>
        <time>2020-09-07T06:53:15.620Z</time>
      </trkpt>
      <trkpt lat="47.18431" lon="6.22091">
        <ele>673</ele>
        <time>2020-09-07T06:53:24.597Z</time>
      </trkpt>
      <trkpt lat="47.18456" lon="6.22117">
        <ele>672.2</ele>
        <time>2020-09-07T06:53:29.909Z</time>
      </trkpt>
      <trkpt lat="47.18494" lon="6.22164">
        <ele>673.5</ele>
        <time>2020-09-07T06:53:53.689Z</time>
      </trkpt>
      <trkpt lat="47.18518" lon="6.222">
        <ele>669</ele>
        <time>2020-09-07T06:53:58.185Z</time>
      </trkpt>
      <trkpt lat="47.18536" lon="6.2222">
        <ele>667.9</ele>
        <time>2020-09-07T06:54:01.322Z</time>
      </trkpt>
      <trkpt lat="47.18545" lon="6.22235">
        <ele>667.5</ele>
        <time>2020-09-07T06:54:03.599Z</time>
      </trkpt>
      <trkpt lat="47.18563" lon="6.22272">
        <ele>666.7</ele>
        <time>2020-09-07T06:54:08.980Z</time>
      </trkpt>
      <trkpt lat="47.1857" lon="6.22285">
        <ele>666.8</ele>
        <time>2020-09-07T06:54:13.448Z</time>
      </trkpt>
      <trkpt lat="47.18608" lon="6.22325">
        <ele>661.5</ele>
        <time>2020-09-07T06:54:19.578Z</time>
      </trkpt>
      <trkpt lat="47.18656" lon="6.22392">
        <ele>664.8</ele>
        <time>2020-09-07T06:55:01.668Z</time>
      </trkpt>
      <trkpt lat="47.18667" lon="6.22404">
        <ele>661.7</ele>
        <time>2020-09-07T06:55:03.465Z</time>
      </trkpt>
      <trkpt lat="47.18693" lon="6.22423">
        <ele>663.8</ele>
        <time>2020-09-07T06:55:25.117Z</time>
      </trkpt>
      <trkpt lat="47.18717" lon="6.22452">
        <ele>662.6</ele>
        <time>2020-09-07T06:55:29.857Z</time>
      </trkpt>
      <trkpt lat="47.18724" lon="6.22456">
        <ele>662.5</ele>
        <time>2020-09-07T06:55:31.372Z</time>
      </trkpt>
      <trkpt lat="47.18755" lon="6.22462">
        <ele>654.8</ele>
        <time>2020-09-07T06:55:35.474Z</time>
      </trkpt>
      <trkpt lat="47.18796" lon="6.22495">
        <ele>653.5</ele>
        <time>2020-09-07T06:55:43.435Z</time>
      </trkpt>
      <trkpt lat="47.18824" lon="6.22527">
        <ele>658.6</ele>
        <time>2020-09-07T06:56:33.229Z</time>
      </trkpt>
      <trkpt lat="47.18842" lon="6.22554">
        <ele>653.3</ele>
        <time>2020-09-07T06:56:36.601Z</time>
      </trkpt>
      <trkpt lat="47.18854" lon="6.22564">
        <ele>653.4</ele>
        <time>2020-09-07T06:56:41.980Z</time>
      </trkpt>
      <trkpt lat="47.18869" lon="6.22583">
        <ele>652.4</ele>
        <time>2020-09-07T06:56:44.690Z</time>
      </trkpt>
      <trkpt lat="47.18901" lon="6.22606">
        <ele>655.7</ele>
        <time>2020-09-07T06:57:16.162Z</time>
      </trkpt>
      <trkpt lat="47.18912" lon="6.22618">
        <ele>656.4</ele>
        <time>2020-09-07T06:57:24.945Z</time>
      </trkpt>
      <trkpt lat="47.18926" lon="6.22643">
        <ele>650.6</ele>
        <time>2020-09-07T06:57:27.833Z</time>
      </trkpt>
      <trkpt lat="47.18956" lon="6.22707">
        <ele>657.3</ele>
        <time>2020-09-07T06:58:35.555Z</time>
      </trkpt>
      <trkpt lat="47.1899" lon="6.22745">
        <ele>659.5</ele>
        <time>2020-09-07T06:59:03.013Z</time>
      </trkpt>
      <trkpt lat="47.1901" lon="6.22773">
        <ele>659.4</ele>
        <time>2020-09-07T06:59:12.537Z</time>
      </trkpt>
      <trkpt lat="47.1903" lon="6.22807">
        <ele>659.7</ele>
        <time>2020-09-07T06:59:24.763Z</time>
      </trkpt>
      <trkpt lat="47.19035" lon="6.22819">
        <ele>660</ele>
        <time>2020-09-07T06:59:29.650Z</time>
      </trkpt>
      <trkpt lat="47.19039" lon="6.22836">
        <ele>664</ele>
        <time>2020-09-07T06:59:46.821Z</time>
      </trkpt>
      <trkpt lat="47.19044" lon="6.22844">
        <ele>664</ele>
        <time>2020-09-07T06:59:49.510Z</time>
      </trkpt>
      <trkpt lat="47.19059" lon="6.22852">
        <ele>663.8</ele>
        <time>2020-09-07T06:59:52.762Z</time>
      </trkpt>
      <trkpt lat="47.19057" lon="6.22868">
        <ele>664.4</ele>
        <time>2020-09-07T07:00:00.004Z</time>
      </trkpt>
      <trkpt lat="47.19058" lon="6.22886">
        <ele>665.2</ele>
        <time>2020-09-07T07:00:08.681Z</time>
      </trkpt>
      <trkpt lat="47.19062" lon="6.22896">
        <ele>665.8</ele>
        <time>2020-09-07T07:00:14.737Z</time>
      </trkpt>
      <trkpt lat="47.19076" lon="6.22919">
        <ele>668.7</ele>
        <time>2020-09-07T07:00:44.207Z</time>
      </trkpt>
      <trkpt lat="47.19092" lon="6.22937">
        <ele>671.3</ele>
        <time>2020-09-07T07:01:10.825Z</time>
      </trkpt>
      <trkpt lat="47.19115" lon="6.22968">
        <ele>672.6</ele>
        <time>2020-09-07T07:01:29.195Z</time>
      </trkpt>
      <trkpt lat="47.19122" lon="6.22974">
        <ele>673</ele>
        <time>2020-09-07T07:01:34.332Z</time>
      </trkpt>
      <trkpt lat="47.19133" lon="6.22977">
        <ele>673.6</ele>
        <time>2020-09-07T07:01:41.628Z</time>
      </trkpt>
      <trkpt lat="47.19147" lon="6.22987">
        <ele>675.2</ele>
        <time>2020-09-07T07:01:56.780Z</time>
      </trkpt>
      <trkpt lat="47.19172" lon="6.23042">
        <ele>683.3</ele>
        <time>2020-09-07T07:02:59.933Z</time>
      </trkpt>
      <trkpt lat="47.19185" lon="6.23102">
        <ele>688.7</ele>
        <time>2020-09-07T07:03:54.336Z</time>
      </trkpt>
      <trkpt lat="47.19194" lon="6.23131">
        <ele>689.8</ele>
        <time>2020-09-07T07:04:08.200Z</time>
      </trkpt>
      <trkpt lat="47.19206" lon="6.23148">
        <ele>690.8</ele>
        <time>2020-09-07T07:04:19.552Z</time>
      </trkpt>
      <trkpt lat="47.19219" lon="6.23156">
        <ele>692.3</ele>
        <time>2020-09-07T07:04:33.790Z</time>
      </trkpt>
      <trkpt lat="47.19226" lon="6.23164">
        <ele>693.5</ele>
        <time>2020-09-07T07:04:46.238Z</time>
      </trkpt>
      <trkpt lat="47.19249" lon="6.2321">
        <ele>695.4</ele>
        <time>2020-09-07T07:05:10.779Z</time>
      </trkpt>
      <trkpt lat="47.19262" lon="6.23226">
        <ele>702.3</ele>
        <time>2020-09-07T07:05:34.582Z</time>
      </trkpt>
      <trkpt lat="47.19275" lon="6.23248">
        <ele>702.9</ele>
        <time>2020-09-07T07:05:44.565Z</time>
      </trkpt>
      <trkpt lat="47.19289" lon="6.2326">
        <ele>706.6</ele>
        <time>2020-09-07T07:06:07.320Z</time>
      </trkpt>
      <trkpt lat="47.19301" lon="6.23282">
        <ele>707.7</ele>
        <time>2020-09-07T07:06:20.146Z</time>
      </trkpt>
      <trkpt lat="47.1932" lon="6.23328">
        <ele>712</ele>
        <time>2020-09-07T07:07:01.929Z</time>
      </trkpt>
      <trkpt lat="47.19321" lon="6.23334">
        <ele>712.6</ele>
        <time>2020-09-07T07:07:07.825Z</time>
      </trkpt>
      <trkpt lat="47.19324" lon="6.23348">
        <ele>711.8</ele>
        <time>2020-09-07T07:07:09.134Z</time>
      </trkpt>
      <trkpt lat="47.19332" lon="6.23365">
        <ele>710.8</ele>
        <time>2020-09-07T07:07:10.978Z</time>
      </trkpt>
      <trkpt lat="47.19342" lon="6.23395">
        <ele>714.8</ele>
        <time>2020-09-07T07:07:42.868Z</time>
      </trkpt>
      <trkpt lat="47.19353" lon="6.23415">
        <ele>714.9</ele>
        <time>2020-09-07T07:07:49.587Z</time>
      </trkpt>
      <trkpt lat="47.19361" lon="6.23425">
        <ele>715.8</ele>
        <time>2020-09-07T07:07:58.314Z</time>
      </trkpt>
      <trkpt lat="47.19371" lon="6.23445">
        <ele>715.9</ele>
        <time>2020-09-07T07:08:04.810Z</time>
      </trkpt>
      <trkpt lat="47.19383" lon="6.23505">
        <ele>716.4</ele>
        <time>2020-09-07T07:08:22.155Z</time>
      </trkpt>
      <trkpt lat="47.19389" lon="6.23525">
        <ele>716.5</ele>
        <time>2020-09-07T07:08:27.920Z</time>
      </trkpt>
      <trkpt lat="47.19402" lon="6.23557">
        <ele>717</ele>
        <time>2020-09-07T07:08:39.180Z</time>
      </trkpt>
      <trkpt lat="47.19425" lon="6.2363">
        <ele>716.9</ele>
        <time>2020-09-07T07:08:58.547Z</time>
      </trkpt>
      <trkpt lat="47.19432" lon="6.23644">
        <ele>716.7</ele>
        <time>2020-09-07T07:09:00.825Z</time>
      </trkpt>
      <trkpt lat="47.19472" lon="6.23702">
        <ele>713.6</ele>
        <time>2020-09-07T07:09:08.217Z</time>
      </trkpt>
      <trkpt lat="47.19475" lon="6.23714">
        <ele>713.4</ele>
        <time>2020-09-07T07:09:09.777Z</time>
      </trkpt>
      <trkpt lat="47.19477" lon="6.23736">
        <ele>713.1</ele>
        <time>2020-09-07T07:09:12.586Z</time>
      </trkpt>
      <trkpt lat="47.19482" lon="6.23742">
        <ele>713.3</ele>
        <time>2020-09-07T07:09:15.866Z</time>
      </trkpt>
      <trkpt lat="47.19489" lon="6.2376">
        <ele>711</ele>
        <time>2020-09-07T07:09:17.715Z</time>
      </trkpt>
      <trkpt lat="47.19496" lon="6.23767">
        <ele>710.8</ele>
        <time>2020-09-07T07:09:19.225Z</time>
      </trkpt>
      <trkpt lat="47.19503" lon="6.23779">
        <ele>712.5</ele>
        <time>2020-09-07T07:09:34.318Z</time>
      </trkpt>
      <trkpt lat="47.19516" lon="6.23794">
        <ele>712.3</ele>
        <time>2020-09-07T07:09:37.704Z</time>
      </trkpt>
      <trkpt lat="47.19563" lon="6.23861">
        <ele>713.7</ele>
        <time>2020-09-07T07:10:07.338Z</time>
      </trkpt>
      <trkpt lat="47.1957" lon="6.23864">
        <ele>713.9</ele>
        <time>2020-09-07T07:10:10.883Z</time>
      </trkpt>
      <trkpt lat="47.19588" lon="6.23862">
        <ele>712.1</ele>
        <time>2020-09-07T07:10:13.252Z</time>
      </trkpt>
      <trkpt lat="47.19608" lon="6.23868">
        <ele>711.1</ele>
        <time>2020-09-07T07:10:16.084Z</time>
      </trkpt>
      <trkpt lat="47.19616" lon="6.23875">
        <ele>710.6</ele>
        <time>2020-09-07T07:10:17.325Z</time>
      </trkpt>
      <trkpt lat="47.19623" lon="6.23897">
        <ele>710.7</ele>
        <time>2020-09-07T07:10:23.688Z</time>
      </trkpt>
      <trkpt lat="47.19641" lon="6.23911">
        <ele>709.3</ele>
        <time>2020-09-07T07:10:26.360Z</time>
      </trkpt>
      <trkpt lat="47.19645" lon="6.23911">
        <ele>709</ele>
        <time>2020-09-07T07:10:26.884Z</time>
      </trkpt>
      <trkpt lat="47.19654" lon="6.239">
        <ele>708.5</ele>
        <time>2020-09-07T07:10:28.602Z</time>
      </trkpt>
      <trkpt lat="47.19663" lon="6.23869">
        <ele>707.5</ele>
        <time>2020-09-07T07:10:31.937Z</time>
      </trkpt>
      <trkpt lat="47.19668" lon="6.23867">
        <ele>697.8</ele>
        <time>2020-09-07T07:10:32.616Z</time>
      </trkpt>
      <trkpt lat="47.19672" lon="6.23864">
        <ele>697.5</ele>
        <time>2020-09-07T07:10:33.205Z</time>
      </trkpt>
      <trkpt lat="47.19667" lon="6.23853">
        <ele>698</ele>
        <time>2020-09-07T07:10:39.149Z</time>
        <extensions>
          <visugpx:TrkExtension xmlns:visugpx="https://www.visugpx.com/editgpx/">
            <visugpx:node>8</visugpx:node>
            </visugpx:TrkExtension>
        </extensions>
      </trkpt>
      <trkpt lat="47.19657" lon="6.23831">
        <ele>701.9</ele>
        <time>2020-09-07T07:11:04.409Z</time>
      </trkpt>
      <trkpt lat="47.19585" lon="6.23721">
        <ele>696.9</ele>
        <time>2020-09-07T07:11:18.915Z</time>
      </trkpt>
      <trkpt lat="47.19548" lon="6.23642">
        <ele>700.8</ele>
        <time>2020-09-07T07:12:03.280Z</time>
      </trkpt>
      <trkpt lat="47.19538" lon="6.236">
        <ele>700.8</ele>
        <time>2020-09-07T07:12:14.291Z</time>
      </trkpt>
      <trkpt lat="47.19525" lon="6.23565">
        <ele>697.1</ele>
        <time>2020-09-07T07:12:17.847Z</time>
      </trkpt>
      <trkpt lat="47.19515" lon="6.23523">
        <ele>696.4</ele>
        <time>2020-09-07T07:12:23.271Z</time>
      </trkpt>
      <trkpt lat="47.19503" lon="6.23485">
        <ele>696</ele>
        <time>2020-09-07T07:12:28.963Z</time>
      </trkpt>
      <trkpt lat="47.19497" lon="6.23423">
        <ele>700.9</ele>
        <time>2020-09-07T07:13:16.235Z</time>
      </trkpt>
      <trkpt lat="47.19496" lon="6.23394">
        <ele>700.3</ele>
        <time>2020-09-07T07:13:19.506Z</time>
      </trkpt>
      <trkpt lat="47.19492" lon="6.23357">
        <ele>698.3</ele>
        <time>2020-09-07T07:13:22.846Z</time>
      </trkpt>
      <trkpt lat="47.19492" lon="6.23348">
        <ele>696.7</ele>
        <time>2020-09-07T07:13:23.648Z</time>
      </trkpt>
      <trkpt lat="47.19494" lon="6.23337">
        <ele>694</ele>
        <time>2020-09-07T07:13:24.663Z</time>
      </trkpt>
      <trkpt lat="47.19498" lon="6.23331">
        <ele>691.6</ele>
        <time>2020-09-07T07:13:25.413Z</time>
      </trkpt>
      <trkpt lat="47.19503" lon="6.23325">
        <ele>686.8</ele>
        <time>2020-09-07T07:13:26.259Z</time>
      </trkpt>
      <trkpt lat="47.19524" lon="6.23311">
        <ele>680.4</ele>
        <time>2020-09-07T07:13:29.284Z</time>
      </trkpt>
      <trkpt lat="47.19535" lon="6.23309">
        <ele>678.4</ele>
        <time>2020-09-07T07:13:30.738Z</time>
      </trkpt>
      <trkpt lat="47.19557" lon="6.23308">
        <ele>675.2</ele>
        <time>2020-09-07T07:13:33.626Z</time>
      </trkpt>
      <trkpt lat="47.19579" lon="6.23316">
        <ele>672.5</ele>
        <time>2020-09-07T07:13:36.599Z</time>
      </trkpt>
      <trkpt lat="47.19596" lon="6.23318">
        <ele>661.6</ele>
        <time>2020-09-07T07:13:38.836Z</time>
      </trkpt>
      <trkpt lat="47.19625" lon="6.23315">
        <ele>656.3</ele>
        <time>2020-09-07T07:13:42.651Z</time>
      </trkpt>
      <trkpt lat="47.19672" lon="6.23306">
        <ele>641.9</ele>
        <time>2020-09-07T07:13:48.869Z</time>
      </trkpt>
      <trkpt lat="47.19677" lon="6.23302">
        <ele>641.3</ele>
        <time>2020-09-07T07:13:49.616Z</time>
      </trkpt>
      <trkpt lat="47.19681" lon="6.23291">
        <ele>640.3</ele>
        <time>2020-09-07T07:13:50.728Z</time>
      </trkpt>
      <trkpt lat="47.19683" lon="6.23282">
        <ele>639.9</ele>
        <time>2020-09-07T07:13:51.528Z</time>
      </trkpt>
      <trkpt lat="47.19684" lon="6.23236">
        <ele>634.8</ele>
        <time>2020-09-07T07:13:55.631Z</time>
      </trkpt>
      <trkpt lat="47.19682" lon="6.23221">
        <ele>633</ele>
        <time>2020-09-07T07:13:56.994Z</time>
      </trkpt>
      <trkpt lat="47.19672" lon="6.23189">
        <ele>631.5</ele>
        <time>2020-09-07T07:13:59.960Z</time>
      </trkpt>
      <trkpt lat="47.19667" lon="6.23179">
        <ele>631.8</ele>
        <time>2020-09-07T07:14:04.516Z</time>
      </trkpt>
      <trkpt lat="47.19653" lon="6.23161">
        <ele>633.5</ele>
        <time>2020-09-07T07:14:20.765Z</time>
      </trkpt>
      <trkpt lat="47.19642" lon="6.23147">
        <ele>633.8</ele>
        <time>2020-09-07T07:14:27.294Z</time>
      </trkpt>
      <trkpt lat="47.1963" lon="6.23138">
        <ele>634.2</ele>
        <time>2020-09-07T07:14:34.031Z</time>
      </trkpt>
      <trkpt lat="47.1961" lon="6.23129">
        <ele>635.2</ele>
        <time>2020-09-07T07:14:47.159Z</time>
      </trkpt>
      <trkpt lat="47.196" lon="6.23119">
        <ele>634.7</ele>
        <time>2020-09-07T07:14:48.957Z</time>
      </trkpt>
      <trkpt lat="47.19582" lon="6.23091">
        <ele>637.4</ele>
        <time>2020-09-07T07:15:14.527Z</time>
      </trkpt>
      <trkpt lat="47.19565" lon="6.23069">
        <ele>633.8</ele>
        <time>2020-09-07T07:15:17.497Z</time>
      </trkpt>
      <trkpt lat="47.19532" lon="6.23041">
        <ele>635.3</ele>
        <time>2020-09-07T07:15:39.193Z</time>
      </trkpt>
      <trkpt lat="47.19507" lon="6.23011">
        <ele>633.8</ele>
        <time>2020-09-07T07:15:43.769Z</time>
      </trkpt>
      <trkpt lat="47.19499" lon="6.22994">
        <ele>633.4</ele>
        <time>2020-09-07T07:15:46.146Z</time>
      </trkpt>
      <trkpt lat="47.19492" lon="6.22962">
        <ele>632</ele>
        <time>2020-09-07T07:15:49.009Z</time>
      </trkpt>
      <trkpt lat="47.19487" lon="6.22927">
        <ele>625.1</ele>
        <time>2020-09-07T07:15:52.197Z</time>
      </trkpt>
      <trkpt lat="47.19477" lon="6.22896">
        <ele>616</ele>
        <time>2020-09-07T07:15:55.256Z</time>
      </trkpt>
      <trkpt lat="47.19496" lon="6.22882">
        <ele>613.9</ele>
        <time>2020-09-07T07:15:58.044Z</time>
      </trkpt>
      <trkpt lat="47.19515" lon="6.22849">
        <ele>604</ele>
        <time>2020-09-07T07:16:01.900Z</time>
      </trkpt>
      <trkpt lat="47.1952" lon="6.22837">
        <ele>603.5</ele>
        <time>2020-09-07T07:16:03.191Z</time>
      </trkpt>
      <trkpt lat="47.1952" lon="6.22837">
        <ele>603.5</ele>
        <time>2020-09-07T07:16:03.191Z</time>
        <extensions>
          <visugpx:TrkExtension xmlns:visugpx="https://www.visugpx.com/editgpx/">
            <visugpx:node>2</visugpx:node>
            </visugpx:TrkExtension>
        </extensions>
      </trkpt>
      <trkpt lat="47.1952" lon="6.22837">
        <ele>603.5</ele>
        <time>2020-09-07T07:16:03.191Z</time>
      </trkpt>
      <trkpt lat="47.19568" lon="6.22717">
        <ele>589.4</ele>
        <time>2020-09-07T07:16:15.605Z</time>
      </trkpt>
      <trkpt lat="47.19574" lon="6.22692">
        <ele>588.6</ele>
        <time>2020-09-07T07:16:18.209Z</time>
      </trkpt>
      <trkpt lat="47.19567" lon="6.22666">
        <ele>585.3</ele>
        <time>2020-09-07T07:16:20.703Z</time>
      </trkpt>
      <trkpt lat="47.19569" lon="6.22645">
        <ele>584.3</ele>
        <time>2020-09-07T07:16:22.593Z</time>
      </trkpt>
      <trkpt lat="47.19575" lon="6.22627">
        <ele>583</ele>
        <time>2020-09-07T07:16:24.381Z</time>
      </trkpt>
      <trkpt lat="47.19574" lon="6.22601">
        <ele>580.8</ele>
        <time>2020-09-07T07:16:26.702Z</time>
      </trkpt>
      <trkpt lat="47.19565" lon="6.22557">
        <ele>572.5</ele>
        <time>2020-09-07T07:16:30.799Z</time>
      </trkpt>
      <trkpt lat="47.19567" lon="6.22542">
        <ele>570.6</ele>
        <time>2020-09-07T07:16:32.161Z</time>
      </trkpt>
      <trkpt lat="47.19572" lon="6.22538">
        <ele>570</ele>
        <time>2020-09-07T07:16:32.908Z</time>
      </trkpt>
      <trkpt lat="47.19655" lon="6.22536">
        <ele>563</ele>
        <time>2020-09-07T07:16:43.799Z</time>
      </trkpt>
      <trkpt lat="47.1966" lon="6.2253">
        <ele>562.1</ele>
        <time>2020-09-07T07:16:44.645Z</time>
      </trkpt>
      <trkpt lat="47.19662" lon="6.2252">
        <ele>560.5</ele>
        <time>2020-09-07T07:16:45.575Z</time>
      </trkpt>
      <trkpt lat="47.19659" lon="6.22511">
        <ele>559.1</ele>
        <time>2020-09-07T07:16:46.468Z</time>
      </trkpt>
      <trkpt lat="47.19635" lon="6.22481">
        <ele>554.1</ele>
        <time>2020-09-07T07:16:50.600Z</time>
      </trkpt>
      <trkpt lat="47.19627" lon="6.22459">
        <ele>553.2</ele>
        <time>2020-09-07T07:16:52.871Z</time>
      </trkpt>
      <trkpt lat="47.19616" lon="6.22445">
        <ele>552.7</ele>
        <time>2020-09-07T07:16:55.186Z</time>
      </trkpt>
      <trkpt lat="47.19607" lon="6.2243">
        <ele>552</ele>
        <time>2020-09-07T07:16:57.033Z</time>
      </trkpt>
      <trkpt lat="47.19605" lon="6.22427">
        <ele>551.8</ele>
        <time>2020-09-07T07:16:57.407Z</time>
      </trkpt>
      <trkpt lat="47.19602" lon="6.22422">
        <ele>551.6</ele>
        <time>2020-09-07T07:16:58.064Z</time>
      </trkpt>
      <trkpt lat="47.19586" lon="6.22405">
        <ele>548.1</ele>
        <time>2020-09-07T07:17:00.653Z</time>
      </trkpt>
      <trkpt lat="47.19566" lon="6.2239">
        <ele>547.3</ele>
        <time>2020-09-07T07:17:04.181Z</time>
      </trkpt>
      <trkpt lat="47.19548" lon="6.22384">
        <ele>546.9</ele>
        <time>2020-09-07T07:17:07.547Z</time>
      </trkpt>
      <trkpt lat="47.19528" lon="6.22386">
        <ele>547.2</ele>
        <time>2020-09-07T07:17:16.006Z</time>
      </trkpt>
      <trkpt lat="47.19494" lon="6.22377">
        <ele>546.7</ele>
        <time>2020-09-07T07:17:22.876Z</time>
      </trkpt>
      <trkpt lat="47.19487" lon="6.22374">
        <ele>546.4</ele>
        <time>2020-09-07T07:17:23.962Z</time>
      </trkpt>
      <trkpt lat="47.19481" lon="6.2238">
        <ele>546.8</ele>
        <time>2020-09-07T07:17:28.742Z</time>
      </trkpt>
      <trkpt lat="47.19444" lon="6.22396">
        <ele>547.3</ele>
        <time>2020-09-07T07:17:44.676Z</time>
      </trkpt>
      <trkpt lat="47.19392" lon="6.22414">
        <ele>546.6</ele>
        <time>2020-09-07T07:17:55.485Z</time>
      </trkpt>
      <trkpt lat="47.19364" lon="6.2242">
        <ele>551.5</ele>
        <time>2020-09-07T07:18:35.225Z</time>
      </trkpt>
      <trkpt lat="47.19335" lon="6.2243">
        <ele>549.8</ele>
        <time>2020-09-07T07:18:39.086Z</time>
      </trkpt>
      <trkpt lat="47.19298" lon="6.22448">
        <ele>552</ele>
        <time>2020-09-07T07:19:04.993Z</time>
      </trkpt>
      <trkpt lat="47.19287" lon="6.2245">
        <ele>552.3</ele>
        <time>2020-09-07T07:19:10.359Z</time>
      </trkpt>
      <trkpt lat="47.19238" lon="6.22432">
        <ele>556.7</ele>
        <time>2020-09-07T07:19:52.850Z</time>
      </trkpt>
      <trkpt lat="47.1922" lon="6.22419">
        <ele>558.3</ele>
        <time>2020-09-07T07:20:08.713Z</time>
      </trkpt>
      <trkpt lat="47.19183" lon="6.22356">
        <ele>558.4</ele>
        <time>2020-09-07T07:20:29.656Z</time>
      </trkpt>
      <trkpt lat="47.19164" lon="6.22329">
        <ele>561.5</ele>
        <time>2020-09-07T07:20:59.761Z</time>
      </trkpt>
      <trkpt lat="47.19132" lon="6.2229">
        <ele>566.8</ele>
        <time>2020-09-07T07:21:53.549Z</time>
      </trkpt>
      <trkpt lat="47.19093" lon="6.22228">
        <ele>566.3</ele>
        <time>2020-09-07T07:22:05.856Z</time>
      </trkpt>
      <trkpt lat="47.1907" lon="6.22198">
        <ele>573.3</ele>
        <time>2020-09-07T07:22:49.022Z</time>
      </trkpt>
      <trkpt lat="47.19015" lon="6.2207">
        <ele>564.4</ele>
        <time>2020-09-07T07:23:02.524Z</time>
      </trkpt>
      <trkpt lat="47.19019" lon="6.21988">
        <ele>559.8</ele>
        <time>2020-09-07T07:23:09.854Z</time>
      </trkpt>
      <trkpt lat="47.19022" lon="6.21897">
        <ele>556.2</ele>
        <time>2020-09-07T07:23:17.809Z</time>
      </trkpt>
      <trkpt lat="47.19032" lon="6.21792">
        <ele>549.7</ele>
        <time>2020-09-07T07:23:27.262Z</time>
      </trkpt>
      <trkpt lat="47.19057" lon="6.21665">
        <ele>542.2</ele>
        <time>2020-09-07T07:23:39.051Z</time>
      </trkpt>
      <trkpt lat="47.19089" lon="6.21525">
        <ele>534.8</ele>
        <time>2020-09-07T07:23:52.220Z</time>
      </trkpt>
      <trkpt lat="47.19108" lon="6.21485">
        <ele>532.7</ele>
        <time>2020-09-07T07:23:56.310Z</time>
      </trkpt>
      <trkpt lat="47.19124" lon="6.2141">
        <ele>528.6</ele>
        <time>2020-09-07T07:24:03.318Z</time>
      </trkpt>
      <trkpt lat="47.19142" lon="6.2134">
        <ele>527.6</ele>
        <time>2020-09-07T07:24:12.815Z</time>
      </trkpt>
      <trkpt lat="47.19169" lon="6.2126">
        <ele>524.3</ele>
        <time>2020-09-07T07:24:20.861Z</time>
      </trkpt>
      <trkpt lat="47.19188" lon="6.21228">
        <ele>521.1</ele>
        <time>2020-09-07T07:24:24.649Z</time>
      </trkpt>
      <trkpt lat="47.19218" lon="6.21157">
        <ele>514.1</ele>
        <time>2020-09-07T07:24:32.103Z</time>
      </trkpt>
      <trkpt lat="47.19237" lon="6.21144">
        <ele>514.8</ele>
        <time>2020-09-07T07:24:43.097Z</time>
      </trkpt>
      <trkpt lat="47.19257" lon="6.21116">
        <ele>513.7</ele>
        <time>2020-09-07T07:24:47.261Z</time>
      </trkpt>
      <trkpt lat="47.19267" lon="6.21095">
        <ele>512.7</ele>
        <time>2020-09-07T07:24:49.514Z</time>
      </trkpt>
      <trkpt lat="47.19264" lon="6.21078">
        <ele>511.7</ele>
        <time>2020-09-07T07:24:51.080Z</time>
      </trkpt>
      <trkpt lat="47.19255" lon="6.21064">
        <ele>511.9</ele>
        <time>2020-09-07T07:24:56.624Z</time>
      </trkpt>
      <trkpt lat="47.19232" lon="6.21049">
        <ele>510.5</ele>
        <time>2020-09-07T07:24:59.923Z</time>
      </trkpt>
      <trkpt lat="47.1922" lon="6.21041">
        <ele>510.4</ele>
        <time>2020-09-07T07:25:02.791Z</time>
      </trkpt>
      <trkpt lat="47.19209" lon="6.21017">
        <ele>510.6</ele>
        <time>2020-09-07T07:25:10.689Z</time>
      </trkpt>
      <trkpt lat="47.19207" lon="6.2099">
        <ele>512.3</ele>
        <time>2020-09-07T07:25:26.918Z</time>
      </trkpt>
      <trkpt lat="47.19295" lon="6.21038">
        <ele>512.9</ele>
        <time>2020-09-07T07:26:03.217Z</time>
      </trkpt>
      <trkpt lat="47.19324" lon="6.2106">
        <ele>512.7</ele>
        <time>2020-09-07T07:26:14.077Z</time>
      </trkpt>
      <trkpt lat="47.1932" lon="6.21031">
        <ele>513.5</ele>
        <time>2020-09-07T07:26:25.597Z</time>
      </trkpt>
      <trkpt lat="47.1932" lon="6.2098">
        <ele>515.3</ele>
        <time>2020-09-07T07:26:47.946Z</time>
      </trkpt>
      <trkpt lat="47.19323" lon="6.20958">
        <ele>515.3</ele>
        <time>2020-09-07T07:26:53.498Z</time>
      </trkpt>
      <trkpt lat="47.19333" lon="6.20905">
        <ele>516.6</ele>
        <time>2020-09-07T07:27:13.471Z</time>
      </trkpt>
      <trkpt lat="47.19353" lon="6.20823">
        <ele>518.3</ele>
        <time>2020-09-07T07:27:42.722Z</time>
      </trkpt>
      <trkpt lat="47.19386" lon="6.20708">
        <ele>516.8</ele>
        <time>2020-09-07T07:27:58.938Z</time>
      </trkpt>
      <trkpt lat="47.19415" lon="6.20583">
        <ele>508.6</ele>
        <time>2020-09-07T07:28:10.713Z</time>
      </trkpt>
      <trkpt lat="47.19434" lon="6.20476">
        <ele>511.4</ele>
        <time>2020-09-07T07:28:52.255Z</time>
      </trkpt>
      <trkpt lat="47.19475" lon="6.2032">
        <ele>521.4</ele>
        <time>2020-09-07T07:30:28.596Z</time>
      </trkpt>
      <trkpt lat="47.195" lon="6.20242">
        <ele>520.3</ele>
        <time>2020-09-07T07:30:39.654Z</time>
      </trkpt>
      <trkpt lat="47.19507" lon="6.20211">
        <ele>520.7</ele>
        <time>2020-09-07T07:30:49.334Z</time>
      </trkpt>
      <trkpt lat="47.19507" lon="6.20191">
        <ele>520.3</ele>
        <time>2020-09-07T07:30:51.610Z</time>
      </trkpt>
      <trkpt lat="47.19495" lon="6.20143">
        <ele>523.3</ele>
        <time>2020-09-07T07:31:20.648Z</time>
      </trkpt>
      <trkpt lat="47.19494" lon="6.20124">
        <ele>524.4</ele>
        <time>2020-09-07T07:31:31.341Z</time>
      </trkpt>
      <trkpt lat="47.19498" lon="6.20094">
        <ele>523.5</ele>
        <time>2020-09-07T07:31:34.375Z</time>
      </trkpt>
      <trkpt lat="47.19508" lon="6.20043">
        <ele>522.8</ele>
        <time>2020-09-07T07:31:41.130Z</time>
      </trkpt>
      <trkpt lat="47.19515" lon="6.20012">
        <ele>523.6</ele>
        <time>2020-09-07T07:31:53.195Z</time>
      </trkpt>
      <trkpt lat="47.19525" lon="6.19979">
        <ele>523.3</ele>
        <time>2020-09-07T07:31:58.220Z</time>
      </trkpt>
      <trkpt lat="47.19543" lon="6.19933">
        <ele>522.6</ele>
        <time>2020-09-07T07:32:04.975Z</time>
      </trkpt>
      <trkpt lat="47.19555" lon="6.1989">
        <ele>521.6</ele>
        <time>2020-09-07T07:32:10.143Z</time>
      </trkpt>
      <trkpt lat="47.19564" lon="6.19869">
        <ele>521.2</ele>
        <time>2020-09-07T07:32:13.149Z</time>
      </trkpt>
      <trkpt lat="47.1958" lon="6.1984">
        <ele>519</ele>
        <time>2020-09-07T07:32:16.479Z</time>
      </trkpt>
      <trkpt lat="47.19612" lon="6.19788">
        <ele>514.5</ele>
        <time>2020-09-07T07:32:22.734Z</time>
      </trkpt>
      <trkpt lat="47.19628" lon="6.19761">
        <ele>513.8</ele>
        <time>2020-09-07T07:32:26.839Z</time>
      </trkpt>
      <trkpt lat="47.19653" lon="6.19755">
        <ele>513</ele>
        <time>2020-09-07T07:32:30.987Z</time>
      </trkpt>
      <trkpt lat="47.19654" lon="6.19763">
        <ele>513.2</ele>
        <time>2020-09-07T07:32:33.997Z</time>
      </trkpt>
      <trkpt lat="47.19658" lon="6.19772">
        <ele>513.5</ele>
        <time>2020-09-07T07:32:38.261Z</time>
      </trkpt>
      <trkpt lat="47.19676" lon="6.19797">
        <ele>512.5</ele>
        <time>2020-09-07T07:32:41.976Z</time>
      </trkpt>
      <trkpt lat="47.19692" lon="6.1984">
        <ele>512.7</ele>
        <time>2020-09-07T07:32:54.811Z</time>
      </trkpt>
      <trkpt lat="47.19697" lon="6.19864">
        <ele>512</ele>
        <time>2020-09-07T07:32:57.355Z</time>
      </trkpt>
      <trkpt lat="47.197" lon="6.19871">
        <ele>511.8</ele>
        <time>2020-09-07T07:32:58.240Z</time>
      </trkpt>
      <trkpt lat="47.19705" lon="6.19879">
        <ele>511.6</ele>
        <time>2020-09-07T07:32:59.508Z</time>
      </trkpt>
      <trkpt lat="47.19921" lon="6.20058">
        <ele>490.8</ele>
        <time>2020-09-07T07:33:32.031Z</time>
      </trkpt>
      <trkpt lat="47.20006" lon="6.20133">
        <ele>480.3</ele>
        <time>2020-09-07T07:33:45.033Z</time>
      </trkpt>
      <trkpt lat="47.20013" lon="6.20137">
        <ele>480.2</ele>
        <time>2020-09-07T07:33:46.548Z</time>
      </trkpt>
      <trkpt lat="47.2002" lon="6.20138">
        <ele>480</ele>
        <time>2020-09-07T07:33:47.739Z</time>
      </trkpt>
      <trkpt lat="47.20083" lon="6.20108">
        <ele>478.1</ele>
        <time>2020-09-07T07:33:58.913Z</time>
      </trkpt>
      <trkpt lat="47.20095" lon="6.20106">
        <ele>476.6</ele>
        <time>2020-09-07T07:34:00.498Z</time>
      </trkpt>
      <trkpt lat="47.20114" lon="6.20111">
        <ele>476.5</ele>
        <time>2020-09-07T07:34:07.009Z</time>
      </trkpt>
      <trkpt lat="47.20193" lon="6.20142">
        <ele>478.4</ele>
        <time>2020-09-07T07:34:44.831Z</time>
      </trkpt>
      <trkpt lat="47.20241" lon="6.20169">
        <ele>479.6</ele>
        <time>2020-09-07T07:35:08.633Z</time>
      </trkpt>
      <trkpt lat="47.20269" lon="6.20178">
        <ele>481.5</ele>
        <time>2020-09-07T07:35:29.061Z</time>
      </trkpt>
      <trkpt lat="47.20273" lon="6.20194">
        <ele>481.4</ele>
        <time>2020-09-07T07:35:31.547Z</time>
      </trkpt>
      <trkpt lat="47.20271" lon="6.20235">
        <ele>480.2</ele>
        <time>2020-09-07T07:35:35.638Z</time>
      </trkpt>
      <trkpt lat="47.20288" lon="6.20225">
        <ele>481.3</ele>
        <time>2020-09-07T07:35:48.119Z</time>
      </trkpt>
      <trkpt lat="47.20302" lon="6.20213">
        <ele>482</ele>
        <time>2020-09-07T07:35:57.882Z</time>
      </trkpt>
      <trkpt lat="47.20307" lon="6.20207">
        <ele>482.3</ele>
        <time>2020-09-07T07:36:01.898Z</time>
      </trkpt>
      <trkpt lat="47.20381" lon="6.20293">
        <ele>486.1</ele>
        <time>2020-09-07T07:36:56.321Z</time>
      </trkpt>
      <trkpt lat="47.20428" lon="6.20339">
        <ele>483.3</ele>
        <time>2020-09-07T07:37:04.112Z</time>
      </trkpt>
      <trkpt lat="47.20505" lon="6.20428">
        <ele>475.5</ele>
        <time>2020-09-07T07:37:16.957Z</time>
      </trkpt>
      <trkpt lat="47.20533" lon="6.20456">
        <ele>476.2</ele>
        <time>2020-09-07T07:37:32.163Z</time>
      </trkpt>
      <trkpt lat="47.20603" lon="6.20535">
        <ele>476.1</ele>
        <time>2020-09-07T07:38:03.733Z</time>
      </trkpt>
      <trkpt lat="47.20633" lon="6.20562">
        <ele>476</ele>
        <time>2020-09-07T07:38:16.002Z</time>
      </trkpt>
      <trkpt lat="47.20645" lon="6.20568">
        <ele>475.9</ele>
        <time>2020-09-07T07:38:18.749Z</time>
      </trkpt>
      <trkpt lat="47.20652" lon="6.20568">
        <ele>475.8</ele>
        <time>2020-09-07T07:38:20.144Z</time>
      </trkpt>
      <trkpt lat="47.20659" lon="6.20565">
        <ele>475.8</ele>
        <time>2020-09-07T07:38:22.799Z</time>
      </trkpt>
      <trkpt lat="47.20668" lon="6.20553">
        <ele>475.5</ele>
        <time>2020-09-07T07:38:24.939Z</time>
      </trkpt>
      <trkpt lat="47.20707" lon="6.20473">
        <ele>479.9</ele>
        <time>2020-09-07T07:39:12.440Z</time>
      </trkpt>
      <trkpt lat="47.20735" lon="6.20419">
        <ele>480.6</ele>
        <time>2020-09-07T07:39:31.955Z</time>
      </trkpt>
      <trkpt lat="47.2074" lon="6.2041">
        <ele>480.7</ele>
        <time>2020-09-07T07:39:35.209Z</time>
        <extensions>
          <visugpx:TrkExtension xmlns:visugpx="https://www.visugpx.com/editgpx/">
            <visugpx:node>10</visugpx:node>
            </visugpx:TrkExtension>
        </extensions>
      </trkpt>
      <trkpt lat="47.20754" lon="6.20382">
        <ele>478.6</ele>
        <time>2020-09-07T07:39:38.307Z</time>
      </trkpt>
      <trkpt lat="47.20818" lon="6.20236">
        <ele>470.8</ele>
        <time>2020-09-07T07:39:52.558Z</time>
      </trkpt>
      <trkpt lat="47.20857" lon="6.2016">
        <ele>465.8</ele>
        <time>2020-09-07T07:40:01.047Z</time>
      </trkpt>
      <trkpt lat="47.20877" lon="6.20106">
        <ele>465.8</ele>
        <time>2020-09-07T07:40:16.261Z</time>
      </trkpt>
      <trkpt lat="47.20889" lon="6.20051">
        <ele>469.5</ele>
        <time>2020-09-07T07:40:51.460Z</time>
      </trkpt>
      <trkpt lat="47.2091" lon="6.19933">
        <ele>475.4</ele>
        <time>2020-09-07T07:41:52.731Z</time>
      </trkpt>
      <trkpt lat="47.20927" lon="6.19782">
        <ele>472.1</ele>
        <time>2020-09-07T07:42:09.728Z</time>
      </trkpt>
      <trkpt lat="47.20928" lon="6.19757">
        <ele>472.8</ele>
        <time>2020-09-07T07:42:19.669Z</time>
      </trkpt>
      <trkpt lat="47.20972" lon="6.19792">
        <ele>470.4</ele>
        <time>2020-09-07T07:42:26.672Z</time>
      </trkpt>
      <trkpt lat="47.20996" lon="6.19797">
        <ele>469.7</ele>
        <time>2020-09-07T07:42:30.754Z</time>
      </trkpt>
      <trkpt lat="47.21075" lon="6.19797">
        <ele>462.7</ele>
        <time>2020-09-07T07:42:41.119Z</time>
      </trkpt>
      <trkpt lat="47.21117" lon="6.19808">
        <ele>457.9</ele>
        <time>2020-09-07T07:42:46.716Z</time>
      </trkpt>
      <trkpt lat="47.2114" lon="6.19817">
        <ele>457.1</ele>
        <time>2020-09-07T07:42:50.533Z</time>
      </trkpt>
      <trkpt lat="47.21157" lon="6.19827">
        <ele>456.5</ele>
        <time>2020-09-07T07:42:53.494Z</time>
      </trkpt>
      <trkpt lat="47.21191" lon="6.19851">
        <ele>451.4</ele>
        <time>2020-09-07T07:42:58.441Z</time>
      </trkpt>
      <trkpt lat="47.21201" lon="6.19864">
        <ele>450.3</ele>
        <time>2020-09-07T07:43:00.191Z</time>
      </trkpt>
      <trkpt lat="47.21229" lon="6.19918">
        <ele>447.4</ele>
        <time>2020-09-07T07:43:05.903Z</time>
      </trkpt>
      <trkpt lat="47.21241" lon="6.19892">
        <ele>448.6</ele>
        <time>2020-09-07T07:43:20.074Z</time>
      </trkpt>
      <trkpt lat="47.21257" lon="6.19847">
        <ele>447.6</ele>
        <time>2020-09-07T07:43:25.878Z</time>
      </trkpt>
      <trkpt lat="47.21278" lon="6.19801">
        <ele>448.5</ele>
        <time>2020-09-07T07:43:43.430Z</time>
      </trkpt>
      <trkpt lat="47.21293" lon="6.19762">
        <ele>448.8</ele>
        <time>2020-09-07T07:43:55.615Z</time>
      </trkpt>
      <trkpt lat="47.21305" lon="6.19752">
        <ele>448.8</ele>
        <time>2020-09-07T07:44:00.636Z</time>
      </trkpt>
      <trkpt lat="47.21353" lon="6.19819">
        <ele>448.3</ele>
        <time>2020-09-07T07:44:15.039Z</time>
      </trkpt>
      <trkpt lat="47.21384" lon="6.1985">
        <ele>448.3</ele>
        <time>2020-09-07T07:44:28.685Z</time>
      </trkpt>
      <trkpt lat="47.21399" lon="6.19859">
        <ele>448.5</ele>
        <time>2020-09-07T07:44:35.335Z</time>
      </trkpt>
      <trkpt lat="47.21435" lon="6.19882">
        <ele>449.3</ele>
        <time>2020-09-07T07:44:52.906Z</time>
      </trkpt>
      <trkpt lat="47.21448" lon="6.19872">
        <ele>449.5</ele>
        <time>2020-09-07T07:44:59.009Z</time>
      </trkpt>
      <trkpt lat="47.21479" lon="6.19832">
        <ele>450.6</ele>
        <time>2020-09-07T07:45:18.874Z</time>
      </trkpt>
      <trkpt lat="47.21497" lon="6.198">
        <ele>450.4</ele>
        <time>2020-09-07T07:45:28.144Z</time>
      </trkpt>
      <trkpt lat="47.21529" lon="6.19756">
        <ele>448.8</ele>
        <time>2020-09-07T07:45:34.964Z</time>
      </trkpt>
      <trkpt lat="47.21577" lon="6.19694">
        <ele>447.5</ele>
        <time>2020-09-07T07:45:46.789Z</time>
      </trkpt>
      <trkpt lat="47.21592" lon="6.19676">
        <ele>446.9</ele>
        <time>2020-09-07T07:45:49.977Z</time>
      </trkpt>
      <trkpt lat="47.2161" lon="6.19652">
        <ele>447.5</ele>
        <time>2020-09-07T07:46:01.406Z</time>
      </trkpt>
      <trkpt lat="47.21634" lon="6.19609">
        <ele>448</ele>
        <time>2020-09-07T07:46:17.069Z</time>
      </trkpt>
      <trkpt lat="47.21678" lon="6.19567">
        <ele>450.8</ele>
        <time>2020-09-07T07:46:51.216Z</time>
      </trkpt>
      <trkpt lat="47.21744" lon="6.19487">
        <ele>453</ele>
        <time>2020-09-07T07:47:31.945Z</time>
      </trkpt>
      <trkpt lat="47.21793" lon="6.19422">
        <ele>449.2</ele>
        <time>2020-09-07T07:47:40.457Z</time>
      </trkpt>
      <trkpt lat="47.21845" lon="6.19359">
        <ele>441.2</ele>
        <time>2020-09-07T07:47:49.292Z</time>
      </trkpt>
      <trkpt lat="47.21866" lon="6.1933">
        <ele>439.6</ele>
        <time>2020-09-07T07:47:53.070Z</time>
      </trkpt>
      <trkpt lat="47.21896" lon="6.193">
        <ele>439</ele>
        <time>2020-09-07T07:48:00.100Z</time>
      </trkpt>
      <trkpt lat="47.21926" lon="6.19265">
        <ele>437.8</ele>
        <time>2020-09-07T07:48:06.382Z</time>
      </trkpt>
      <trkpt lat="47.21943" lon="6.19242">
        <ele>438</ele>
        <time>2020-09-07T07:48:15.513Z</time>
      </trkpt>
      <trkpt lat="47.2195" lon="6.19228">
        <ele>438</ele>
        <time>2020-09-07T07:48:19.812Z</time>
      </trkpt>
      <trkpt lat="47.21963" lon="6.19202">
        <ele>438</ele>
        <time>2020-09-07T07:48:27.797Z</time>
      </trkpt>
      <trkpt lat="47.21968" lon="6.1919">
        <ele>437.9</ele>
        <time>2020-09-07T07:48:29.799Z</time>
      </trkpt>
      <trkpt lat="47.21969" lon="6.19183">
        <ele>437.9</ele>
        <time>2020-09-07T07:48:31.568Z</time>
      </trkpt>
      <trkpt lat="47.21968" lon="6.19148">
        <ele>437.9</ele>
        <time>2020-09-07T07:48:40.232Z</time>
      </trkpt>
      <trkpt lat="47.21966" lon="6.19136">
        <ele>437.9</ele>
        <time>2020-09-07T07:48:43.287Z</time>
      </trkpt>
      <trkpt lat="47.21953" lon="6.19096">
        <ele>438</ele>
        <time>2020-09-07T07:48:54.598Z</time>
      </trkpt>
      <trkpt lat="47.21933" lon="6.19063">
        <ele>437.8</ele>
        <time>2020-09-07T07:49:04.524Z</time>
      </trkpt>
      <trkpt lat="47.21923" lon="6.19049">
        <ele>437.6</ele>
        <time>2020-09-07T07:49:07.267Z</time>
      </trkpt>
      <trkpt lat="47.21885" lon="6.19015">
        <ele>438.1</ele>
        <time>2020-09-07T07:49:25.318Z</time>
      </trkpt>
      <trkpt lat="47.21859" lon="6.18979">
        <ele>436.8</ele>
        <time>2020-09-07T07:49:30.883Z</time>
      </trkpt>
      <trkpt lat="47.21841" lon="6.18944">
        <ele>436.1</ele>
        <time>2020-09-07T07:49:36.211Z</time>
      </trkpt>
      <trkpt lat="47.21821" lon="6.18899">
        <ele>433.5</ele>
        <time>2020-09-07T07:49:41.004Z</time>
      </trkpt>
      <trkpt lat="47.21818" lon="6.18889">
        <ele>433.2</ele>
        <time>2020-09-07T07:49:42.118Z</time>
      </trkpt>
      <trkpt lat="47.21818" lon="6.18878">
        <ele>433</ele>
        <time>2020-09-07T07:49:43.405Z</time>
      </trkpt>
      <trkpt lat="47.21822" lon="6.18857">
        <ele>433.3</ele>
        <time>2020-09-07T07:49:50.028Z</time>
      </trkpt>
      <trkpt lat="47.21821" lon="6.18846">
        <ele>433.6</ele>
        <time>2020-09-07T07:49:54.347Z</time>
      </trkpt>
      <trkpt lat="47.21797" lon="6.18755">
        <ele>434.4</ele>
        <time>2020-09-07T07:50:21.490Z</time>
      </trkpt>
      <trkpt lat="47.21786" lon="6.18707">
        <ele>436.3</ele>
        <time>2020-09-07T07:50:44.173Z</time>
      </trkpt>
      <trkpt lat="47.2178" lon="6.18691">
        <ele>436.4</ele>
        <time>2020-09-07T07:50:49.053Z</time>
      </trkpt>
      <trkpt lat="47.21744" lon="6.18635">
        <ele>435.2</ele>
        <time>2020-09-07T07:50:58.471Z</time>
      </trkpt>
      <trkpt lat="47.21739" lon="6.18623">
        <ele>435.3</ele>
        <time>2020-09-07T07:51:02.321Z</time>
      </trkpt>
      <trkpt lat="47.21734" lon="6.18592">
        <ele>436.5</ele>
        <time>2020-09-07T07:51:16.610Z</time>
      </trkpt>
      <trkpt lat="47.21731" lon="6.18544">
        <ele>435.8</ele>
        <time>2020-09-07T07:51:22.602Z</time>
      </trkpt>
      <trkpt lat="47.21736" lon="6.1852">
        <ele>435.9</ele>
        <time>2020-09-07T07:51:29.163Z</time>
      </trkpt>
      <trkpt lat="47.21743" lon="6.18502">
        <ele>436.5</ele>
        <time>2020-09-07T07:51:37.574Z</time>
      </trkpt>
      <trkpt lat="47.21749" lon="6.1849">
        <ele>435.8</ele>
        <time>2020-09-07T07:51:38.902Z</time>
      </trkpt>
      <trkpt lat="47.21757" lon="6.1848">
        <ele>436.8</ele>
        <time>2020-09-07T07:51:48.403Z</time>
      </trkpt>
      <trkpt lat="47.21857" lon="6.18379">
        <ele>438.2</ele>
        <time>2020-09-07T07:52:37.782Z</time>
      </trkpt>
      <trkpt lat="47.21862" lon="6.18365">
        <ele>438.2</ele>
        <time>2020-09-07T07:52:41.693Z</time>
      </trkpt>
      <trkpt lat="47.21861" lon="6.18342">
        <ele>437.8</ele>
        <time>2020-09-07T07:52:44.427Z</time>
      </trkpt>
      <trkpt lat="47.21866" lon="6.18326">
        <ele>438.2</ele>
        <time>2020-09-07T07:52:50.706Z</time>
      </trkpt>
      <trkpt lat="47.21872" lon="6.18317">
        <ele>438.5</ele>
        <time>2020-09-07T07:52:55.298Z</time>
      </trkpt>
      <trkpt lat="47.21985" lon="6.18194">
        <ele>438.4</ele>
        <time>2020-09-07T07:53:45.915Z</time>
      </trkpt>
      <trkpt lat="47.2207" lon="6.1811">
        <ele>435.2</ele>
        <time>2020-09-07T07:54:02.733Z</time>
      </trkpt>
      <trkpt lat="47.22082" lon="6.18105">
        <ele>435.1</ele>
        <time>2020-09-07T07:54:05.432Z</time>
      </trkpt>
      <trkpt lat="47.22091" lon="6.18098">
        <ele>434.9</ele>
        <time>2020-09-07T07:54:07.332Z</time>
      </trkpt>
      <trkpt lat="47.22095" lon="6.18081">
        <ele>435</ele>
        <time>2020-09-07T07:54:12.142Z</time>
      </trkpt>
      <trkpt lat="47.22107" lon="6.18015">
        <ele>435.3</ele>
        <time>2020-09-07T07:54:30.102Z</time>
      </trkpt>
      <trkpt lat="47.22099" lon="6.17938">
        <ele>436</ele>
        <time>2020-09-07T07:54:52.023Z</time>
      </trkpt>
      <trkpt lat="47.22103" lon="6.17914">
        <ele>436.6</ele>
        <time>2020-09-07T07:55:01.110Z</time>
      </trkpt>
      <trkpt lat="47.22122" lon="6.17854">
        <ele>436.6</ele>
        <time>2020-09-07T07:55:17.482Z</time>
      </trkpt>
      <trkpt lat="47.22131" lon="6.17833">
        <ele>436.9</ele>
        <time>2020-09-07T07:55:24.818Z</time>
      </trkpt>
      <trkpt lat="47.22136" lon="6.17812">
        <ele>436.8</ele>
        <time>2020-09-07T07:55:29.815Z</time>
      </trkpt>
      <trkpt lat="47.22139" lon="6.17783">
        <ele>436.8</ele>
        <time>2020-09-07T07:55:37.069Z</time>
      </trkpt>
      <trkpt lat="47.22145" lon="6.17765">
        <ele>436.8</ele>
        <time>2020-09-07T07:55:42.028Z</time>
      </trkpt>
      <trkpt lat="47.2215" lon="6.17738">
        <ele>436.7</ele>
        <time>2020-09-07T07:55:48.432Z</time>
      </trkpt>
      <trkpt lat="47.22186" lon="6.17752">
        <ele>436.4</ele>
        <time>2020-09-07T07:55:56.485Z</time>
      </trkpt>
      <trkpt lat="47.22247" lon="6.17779">
        <ele>435.6</ele>
        <time>2020-09-07T07:56:09.463Z</time>
      </trkpt>
      <trkpt lat="47.2228" lon="6.17802">
        <ele>433.9</ele>
        <time>2020-09-07T07:56:14.640Z</time>
      </trkpt>
      <trkpt lat="47.22294" lon="6.17815">
        <ele>433.6</ele>
        <time>2020-09-07T07:56:17.788Z</time>
      </trkpt>
      <trkpt lat="47.22298" lon="6.17804">
        <ele>433.6</ele>
        <time>2020-09-07T07:56:20.873Z</time>
      </trkpt>
      <trkpt lat="47.22314" lon="6.17771">
        <ele>433.5</ele>
        <time>2020-09-07T07:56:30.372Z</time>
      </trkpt>
      <trkpt lat="47.22343" lon="6.1772">
        <ele>434.4</ele>
        <time>2020-09-07T07:56:50.492Z</time>
      </trkpt>
      <trkpt lat="47.22361" lon="6.17694">
        <ele>434.8</ele>
        <time>2020-09-07T07:57:01.235Z</time>
      </trkpt>
      <trkpt lat="47.2243" lon="6.17633">
        <ele>438.3</ele>
        <time>2020-09-07T07:57:49.942Z</time>
      </trkpt>
      <trkpt lat="47.22448" lon="6.17618">
        <ele>439</ele>
        <time>2020-09-07T07:58:00.857Z</time>
      </trkpt>
      <trkpt lat="47.22576" lon="6.17519">
        <ele>449.1</ele>
        <time>2020-09-07T07:59:46.679Z</time>
      </trkpt>
      <trkpt lat="47.22642" lon="6.17466">
        <ele>455.4</ele>
        <time>2020-09-07T08:00:48.160Z</time>
      </trkpt>
      <trkpt lat="47.22684" lon="6.17419">
        <ele>458.1</ele>
        <time>2020-09-07T08:01:22.009Z</time>
      </trkpt>
      <trkpt lat="47.22741" lon="6.17389">
        <ele>454.2</ele>
        <time>2020-09-07T08:01:29.410Z</time>
      </trkpt>
      <trkpt lat="47.22818" lon="6.17343">
        <ele>442.6</ele>
        <time>2020-09-07T08:01:40.312Z</time>
      </trkpt>
      <trkpt lat="47.22868" lon="6.17289">
        <ele>434.1</ele>
        <time>2020-09-07T08:01:48.447Z</time>
      </trkpt>
      <trkpt lat="47.22941" lon="6.17216">
        <ele>432.4</ele>
        <time>2020-09-07T08:02:05.000Z</time>
      </trkpt>
      <trkpt lat="47.23011" lon="6.16975">
        <ele>433.5</ele>
        <time>2020-09-07T08:03:13.702Z</time>
      </trkpt>
      <trkpt lat="47.23041" lon="6.16899">
        <ele>432.4</ele>
        <time>2020-09-07T08:03:25.012Z</time>
      </trkpt>
      <trkpt lat="47.2306" lon="6.16885">
        <ele>432.5</ele>
        <time>2020-09-07T08:03:33.097Z</time>
      </trkpt>
      <trkpt lat="47.23131" lon="6.16872">
        <ele>430.5</ele>
        <time>2020-09-07T08:03:45.267Z</time>
      </trkpt>
      <trkpt lat="47.23173" lon="6.16866">
        <ele>428</ele>
        <time>2020-09-07T08:03:50.641Z</time>
      </trkpt>
      <trkpt lat="47.23179" lon="6.16855">
        <ele>427.7</ele>
        <time>2020-09-07T08:03:52.214Z</time>
      </trkpt>
      <trkpt lat="47.23186" lon="6.16851">
        <ele>427.7</ele>
        <time>2020-09-07T08:03:54.948Z</time>
      </trkpt>
      <trkpt lat="47.23249" lon="6.16824">
        <ele>424.7</ele>
        <time>2020-09-07T08:04:04.323Z</time>
      </trkpt>
      <trkpt lat="47.2326" lon="6.16815">
        <ele>422.2</ele>
        <time>2020-09-07T08:04:05.974Z</time>
      </trkpt>
      <trkpt lat="47.23275" lon="6.16792">
        <ele>420.4</ele>
        <time>2020-09-07T08:04:08.815Z</time>
      </trkpt>
      <trkpt lat="47.23367" lon="6.16596">
        <ele>413.8</ele>
        <time>2020-09-07T08:04:33.004Z</time>
      </trkpt>
      <trkpt lat="47.23295" lon="6.16515">
        <ele>413.5</ele>
        <time>2020-09-07T08:05:04.403Z</time>
      </trkpt>
      <trkpt lat="47.23285" lon="6.16503">
        <ele>413.6</ele>
        <time>2020-09-07T08:05:09.459Z</time>
      </trkpt>
      <trkpt lat="47.23173" lon="6.16382">
        <ele>419.9</ele>
        <time>2020-09-07T08:06:35.286Z</time>
      </trkpt>
      <trkpt lat="47.23135" lon="6.1635">
        <ele>422.2</ele>
        <time>2020-09-07T08:07:03.629Z</time>
      </trkpt>
      <trkpt lat="47.2296" lon="6.16214">
        <ele>425.3</ele>
        <time>2020-09-07T08:08:27.751Z</time>
      </trkpt>
      <trkpt lat="47.22927" lon="6.16184">
        <ele>427.1</ele>
        <time>2020-09-07T08:08:51.876Z</time>
      </trkpt>
      <trkpt lat="47.2292" lon="6.16174">
        <ele>428.1</ele>
        <time>2020-09-07T08:09:01.345Z</time>
      </trkpt>
      <trkpt lat="47.22914" lon="6.16159">
        <ele>428.7</ele>
        <time>2020-09-07T08:09:08.909Z</time>
      </trkpt>
      <trkpt lat="47.22911" lon="6.16138">
        <ele>428.2</ele>
        <time>2020-09-07T08:09:11.230Z</time>
      </trkpt>
      <trkpt lat="47.22913" lon="6.16131">
        <ele>428.1</ele>
        <time>2020-09-07T08:09:12.196Z</time>
      </trkpt>
      <trkpt lat="47.22917" lon="6.16117">
        <ele>428.3</ele>
        <time>2020-09-07T08:09:16.762Z</time>
      </trkpt>
      <trkpt lat="47.22941" lon="6.16106">
        <ele>428.3</ele>
        <time>2020-09-07T08:09:25.915Z</time>
      </trkpt>
      <trkpt lat="47.23015" lon="6.16105">
        <ele>428.8</ele>
        <time>2020-09-07T08:09:54.639Z</time>
      </trkpt>
      <trkpt lat="47.23042" lon="6.16113">
        <ele>428.9</ele>
        <time>2020-09-07T08:10:05.012Z</time>
      </trkpt>
      <trkpt lat="47.23058" lon="6.16107">
        <ele>429.3</ele>
        <time>2020-09-07T08:10:12.739Z</time>
      </trkpt>
      <trkpt lat="47.23081" lon="6.1607">
        <ele>430.2</ele>
        <time>2020-09-07T08:10:29.102Z</time>
      </trkpt>
      <trkpt lat="47.231" lon="6.1601">
        <ele>429.7</ele>
        <time>2020-09-07T08:10:38.434Z</time>
      </trkpt>
      <trkpt lat="47.23112" lon="6.15958">
        <ele>430</ele>
        <time>2020-09-07T08:10:53.094Z</time>
      </trkpt>
      <trkpt lat="47.23111" lon="6.15933">
        <ele>429.8</ele>
        <time>2020-09-07T08:10:56.595Z</time>
      </trkpt>
      <trkpt lat="47.23143" lon="6.15854">
        <ele>429.4</ele>
        <time>2020-09-07T08:11:17.307Z</time>
      </trkpt>
      <trkpt lat="47.23152" lon="6.15852">
        <ele>429.8</ele>
        <time>2020-09-07T08:11:22.854Z</time>
      </trkpt>
      <trkpt lat="47.2316" lon="6.1584">
        <ele>430.3</ele>
        <time>2020-09-07T08:11:29.797Z</time>
      </trkpt>
      <trkpt lat="47.23167" lon="6.15813">
        <ele>433.6</ele>
        <time>2020-09-07T08:11:57.359Z</time>
      </trkpt>
      <trkpt lat="47.23147" lon="6.1578">
        <ele>429.8</ele>
        <time>2020-09-07T08:12:01.300Z</time>
      </trkpt>
      <trkpt lat="47.23139" lon="6.15747">
        <ele>431.2</ele>
        <time>2020-09-07T08:12:17.380Z</time>
      </trkpt>
      <trkpt lat="47.23105" lon="6.15686">
        <ele>429.7</ele>
        <time>2020-09-07T08:12:26.492Z</time>
      </trkpt>
      <trkpt lat="47.23081" lon="6.15667">
        <ele>427.8</ele>
        <time>2020-09-07T08:12:30.067Z</time>
      </trkpt>
      <trkpt lat="47.2307" lon="6.15653">
        <ele>427.5</ele>
        <time>2020-09-07T08:12:32.751Z</time>
      </trkpt>
      <trkpt lat="47.23085" lon="6.15586">
        <ele>428.4</ele>
        <time>2020-09-07T08:12:53.820Z</time>
      </trkpt>
      <trkpt lat="47.23109" lon="6.15517">
        <ele>430.7</ele>
        <time>2020-09-07T08:13:25.778Z</time>
      </trkpt>
      <trkpt lat="47.23116" lon="6.15475">
        <ele>431.6</ele>
        <time>2020-09-07T08:13:40.645Z</time>
      </trkpt>
      <trkpt lat="47.23122" lon="6.15443">
        <ele>432</ele>
        <time>2020-09-07T08:13:50.446Z</time>
      </trkpt>
      <trkpt lat="47.23138" lon="6.15362">
        <ele>435.2</ele>
        <time>2020-09-07T08:14:28.374Z</time>
      </trkpt>
      <trkpt lat="47.23143" lon="6.15221">
        <ele>439.4</ele>
        <time>2020-09-07T08:15:26.681Z</time>
      </trkpt>
      <trkpt lat="47.23139" lon="6.15155">
        <ele>438.9</ele>
        <time>2020-09-07T08:15:36.023Z</time>
      </trkpt>
      <trkpt lat="47.23125" lon="6.15088">
        <ele>438.2</ele>
        <time>2020-09-07T08:15:45.461Z</time>
      </trkpt>
      <trkpt lat="47.23136" lon="6.14998">
        <ele>441.3</ele>
        <time>2020-09-07T08:16:24.977Z</time>
      </trkpt>
      <trkpt lat="47.23145" lon="6.14966">
        <ele>441.3</ele>
        <time>2020-09-07T08:16:33.541Z</time>
      </trkpt>
      <trkpt lat="47.23126" lon="6.14956">
        <ele>442</ele>
        <time>2020-09-07T08:16:44.310Z</time>
      </trkpt>
      <trkpt lat="47.23083" lon="6.14947">
        <ele>442.9</ele>
        <time>2020-09-07T08:17:03.830Z</time>
      </trkpt>
      <trkpt lat="47.23063" lon="6.14932">
        <ele>442.9</ele>
        <time>2020-09-07T08:17:12.002Z</time>
      </trkpt>
      <trkpt lat="47.23052" lon="6.14871">
        <ele>447.3</ele>
        <time>2020-09-07T08:17:53.667Z</time>
      </trkpt>
      <trkpt lat="47.23031" lon="6.1481">
        <ele>450.6</ele>
        <time>2020-09-07T08:18:27.968Z</time>
      </trkpt>
      <trkpt lat="47.23013" lon="6.14768">
        <ele>450.7</ele>
        <time>2020-09-07T08:18:40.591Z</time>
      </trkpt>
      <trkpt lat="47.22986" lon="6.14662">
        <ele>449</ele>
        <time>2020-09-07T08:18:54.543Z</time>
      </trkpt>
      <trkpt lat="47.22963" lon="6.14594">
        <ele>446.7</ele>
        <time>2020-09-07T08:19:01.989Z</time>
      </trkpt>
      <trkpt lat="47.23" lon="6.14548">
        <ele>445.5</ele>
        <time>2020-09-07T08:19:10.516Z</time>
      </trkpt>
      <trkpt lat="47.23104" lon="6.14429">
        <ele>438.7</ele>
        <time>2020-09-07T08:19:28.382Z</time>
      </trkpt>
      <trkpt lat="47.23105" lon="6.14428">
        <ele>438.7</ele>
        <time>2020-09-07T08:19:28.822Z</time>
      </trkpt>
      <trkpt lat="47.23166" lon="6.14366">
        <ele>440.3</ele>
        <time>2020-09-07T08:20:02.462Z</time>
      </trkpt>
      <trkpt lat="47.2323" lon="6.14296">
        <ele>439.3</ele>
        <time>2020-09-07T08:20:18.709Z</time>
      </trkpt>
      <trkpt lat="47.23277" lon="6.14256">
        <ele>438.5</ele>
        <time>2020-09-07T08:20:29.468Z</time>
      </trkpt>
      <trkpt lat="47.23333" lon="6.1421">
        <ele>440.3</ele>
        <time>2020-09-07T08:21:00.898Z</time>
      </trkpt>
      <trkpt lat="47.23348" lon="6.142">
        <ele>437.3</ele>
        <time>2020-09-07T08:21:03.058Z</time>
      </trkpt>
      <trkpt lat="47.23373" lon="6.14193">
        <ele>436.6</ele>
        <time>2020-09-07T08:21:07.408Z</time>
      </trkpt>
      <trkpt lat="47.23386" lon="6.14171">
        <ele>436.1</ele>
        <time>2020-09-07T08:21:10.877Z</time>
      </trkpt>
      <trkpt lat="47.23399" lon="6.14155">
        <ele>436.3</ele>
        <time>2020-09-07T08:21:17.794Z</time>
      </trkpt>
      <trkpt lat="47.23466" lon="6.1408">
        <ele>426.3</ele>
        <time>2020-09-07T08:21:28.835Z</time>
      </trkpt>
      <trkpt lat="47.23481" lon="6.14052">
        <ele>425.2</ele>
        <time>2020-09-07T08:21:32.304Z</time>
      </trkpt>
      <trkpt lat="47.23485" lon="6.14047">
        <ele>425</ele>
        <time>2020-09-07T08:21:33.109Z</time>
      </trkpt>
      <trkpt lat="47.23497" lon="6.14045">
        <ele>424.5</ele>
        <time>2020-09-07T08:21:34.904Z</time>
      </trkpt>
      <trkpt lat="47.23527" lon="6.14009">
        <ele>418.5</ele>
        <time>2020-09-07T08:21:39.982Z</time>
      </trkpt>
      <trkpt lat="47.23585" lon="6.13949">
        <ele>416.7</ele>
        <time>2020-09-07T08:21:52.378Z</time>
      </trkpt>
      <trkpt lat="47.23591" lon="6.13942">
        <ele>416.8</ele>
        <time>2020-09-07T08:21:55.544Z</time>
      </trkpt>
      <trkpt lat="47.23629" lon="6.13896">
        <ele>416.8</ele>
        <time>2020-09-07T08:22:13.455Z</time>
      </trkpt>
      <trkpt lat="47.23689" lon="6.13861">
        <ele>416.8</ele>
        <time>2020-09-07T08:22:36.954Z</time>
      </trkpt>
      <trkpt lat="47.2373" lon="6.13827">
        <ele>416.9</ele>
        <time>2020-09-07T08:22:54.427Z</time>
      </trkpt>
      <trkpt lat="47.23783" lon="6.13771">
        <ele>416.7</ele>
        <time>2020-09-07T08:23:17.112Z</time>
      </trkpt>
      <trkpt lat="47.23824" lon="6.13724">
        <ele>416.3</ele>
        <time>2020-09-07T08:23:28.403Z</time>
      </trkpt>
      <trkpt lat="47.23832" lon="6.13709">
        <ele>416.3</ele>
        <time>2020-09-07T08:23:33.119Z</time>
      </trkpt>
      <trkpt lat="47.23835" lon="6.13698">
        <ele>416.3</ele>
        <time>2020-09-07T08:23:36.050Z</time>
      </trkpt>
      <trkpt lat="47.23836" lon="6.13681">
        <ele>416.5</ele>
        <time>2020-09-07T08:23:41.060Z</time>
      </trkpt>
      <trkpt lat="47.23824" lon="6.13626">
        <ele>414</ele>
        <time>2020-09-07T08:23:45.882Z</time>
      </trkpt>
      <trkpt lat="47.23822" lon="6.1361">
        <ele>413.5</ele>
        <time>2020-09-07T08:23:47.466Z</time>
      </trkpt>
      <trkpt lat="47.23823" lon="6.13594">
        <ele>413.2</ele>
        <time>2020-09-07T08:23:49.331Z</time>
      </trkpt>
      <trkpt lat="47.23834" lon="6.13562">
        <ele>412.1</ele>
        <time>2020-09-07T08:23:52.828Z</time>
      </trkpt>
      <trkpt lat="47.23868" lon="6.13361">
        <ele>407</ele>
        <time>2020-09-07T08:24:14.794Z</time>
      </trkpt>
      <trkpt lat="47.23875" lon="6.13334">
        <ele>406.8</ele>
        <time>2020-09-07T08:24:18.917Z</time>
      </trkpt>
      <trkpt lat="47.23894" lon="6.13278">
        <ele>404.1</ele>
        <time>2020-09-07T08:24:24.151Z</time>
      </trkpt>
      <trkpt lat="47.239" lon="6.13265">
        <ele>403.8</ele>
        <time>2020-09-07T08:24:25.963Z</time>
      </trkpt>
      <trkpt lat="47.23911" lon="6.13251">
        <ele>403.3</ele>
        <time>2020-09-07T08:24:28.276Z</time>
      </trkpt>
      <trkpt lat="47.24003" lon="6.13158">
        <ele>400</ele>
        <time>2020-09-07T08:24:46.933Z</time>
      </trkpt>
      <trkpt lat="47.24044" lon="6.13113">
        <ele>399.9</ele>
        <time>2020-09-07T08:25:05.009Z</time>
      </trkpt>
      <trkpt lat="47.24054" lon="6.13098">
        <ele>399.9</ele>
        <time>2020-09-07T08:25:10.206Z</time>
      </trkpt>
      <trkpt lat="47.24132" lon="6.12965">
        <ele>395.9</ele>
        <time>2020-09-07T08:25:29.359Z</time>
      </trkpt>
      <trkpt lat="47.24148" lon="6.12932">
        <ele>395.8</ele>
        <time>2020-09-07T08:25:38.855Z</time>
      </trkpt>
      <trkpt lat="47.24134" lon="6.12849">
        <ele>395.1</ele>
        <time>2020-09-07T08:25:50.763Z</time>
      </trkpt>
      <trkpt lat="47.24289" lon="6.12669">
        <ele>399.7</ele>
        <time>2020-09-07T08:27:22.140Z</time>
      </trkpt>
      <trkpt lat="47.2434" lon="6.12619">
        <ele>401.2</ele>
        <time>2020-09-07T08:27:50.897Z</time>
      </trkpt>
      <trkpt lat="47.24443" lon="6.12515">
        <ele>401.2</ele>
        <time>2020-09-07T08:28:36.367Z</time>
      </trkpt>
      <trkpt lat="47.2445" lon="6.12498">
        <ele>400.7</ele>
        <time>2020-09-07T08:28:38.459Z</time>
      </trkpt>
      <trkpt lat="47.24455" lon="6.12484">
        <ele>400.8</ele>
        <time>2020-09-07T08:28:42.734Z</time>
      </trkpt>
      <trkpt lat="47.24465" lon="6.12455">
        <ele>401.1</ele>
        <time>2020-09-07T08:28:51.917Z</time>
      </trkpt>
      <trkpt lat="47.24487" lon="6.12393">
        <ele>402</ele>
        <time>2020-09-07T08:29:12.842Z</time>
      </trkpt>
      <trkpt lat="47.24502" lon="6.12361">
        <ele>406.6</ele>
        <time>2020-09-07T08:29:49.920Z</time>
      </trkpt>
      <trkpt lat="47.24526" lon="6.1235">
        <ele>407.6</ele>
        <time>2020-09-07T08:30:04.320Z</time>
      </trkpt>
      <trkpt lat="47.24538" lon="6.12307">
        <ele>407.1</ele>
        <time>2020-09-07T08:30:10.490Z</time>
      </trkpt>
      <trkpt lat="47.24536" lon="6.12263">
        <ele>406</ele>
        <time>2020-09-07T08:30:15.144Z</time>
      </trkpt>
      <trkpt lat="47.2454" lon="6.12251">
        <ele>406.1</ele>
        <time>2020-09-07T08:30:18.819Z</time>
      </trkpt>
      <trkpt lat="47.24535" lon="6.1222">
        <ele>403.4</ele>
        <time>2020-09-07T08:30:21.657Z</time>
      </trkpt>
      <trkpt lat="47.24526" lon="6.12202">
        <ele>402.7</ele>
        <time>2020-09-07T08:30:23.817Z</time>
      </trkpt>
      <trkpt lat="47.24544" lon="6.12175">
        <ele>403.1</ele>
        <time>2020-09-07T08:30:34.728Z</time>
      </trkpt>
      <trkpt lat="47.24547" lon="6.12163">
        <ele>401.4</ele>
        <time>2020-09-07T08:30:35.867Z</time>
      </trkpt>
      <trkpt lat="47.24549" lon="6.12149">
        <ele>401.3</ele>
        <time>2020-09-07T08:30:37.905Z</time>
      </trkpt>
      <trkpt lat="47.2455" lon="6.12125">
        <ele>400.8</ele>
        <time>2020-09-07T08:30:40.604Z</time>
      </trkpt>
      <trkpt lat="47.24544" lon="6.12115">
        <ele>400.4</ele>
        <time>2020-09-07T08:30:41.917Z</time>
      </trkpt>
      <trkpt lat="47.24524" lon="6.12072">
        <ele>397.4</ele>
        <time>2020-09-07T08:30:46.560Z</time>
      </trkpt>
      <trkpt lat="47.24517" lon="6.1206">
        <ele>397.2</ele>
        <time>2020-09-07T08:30:48.590Z</time>
      </trkpt>
      <trkpt lat="47.24509" lon="6.12048">
        <ele>397.2</ele>
        <time>2020-09-07T08:30:52.747Z</time>
      </trkpt>
      <trkpt lat="47.24511" lon="6.12038">
        <ele>397.2</ele>
        <time>2020-09-07T08:30:55.324Z</time>
      </trkpt>
      <trkpt lat="47.24511" lon="6.12027">
        <ele>397</ele>
        <time>2020-09-07T08:30:56.611Z</time>
      </trkpt>
      <trkpt lat="47.24492" lon="6.11968">
        <ele>394.1</ele>
        <time>2020-09-07T08:31:01.990Z</time>
      </trkpt>
      <trkpt lat="47.24482" lon="6.1192">
        <ele>394.7</ele>
        <time>2020-09-07T08:31:16.787Z</time>
      </trkpt>
      <trkpt lat="47.24477" lon="6.11885">
        <ele>394.9</ele>
        <time>2020-09-07T08:31:26.350Z</time>
      </trkpt>
      <trkpt lat="47.24479" lon="6.11853">
        <ele>395.3</ele>
        <time>2020-09-07T08:31:35.897Z</time>
      </trkpt>
      <trkpt lat="47.24488" lon="6.11825">
        <ele>396.6</ele>
        <time>2020-09-07T08:31:50.411Z</time>
      </trkpt>
      <trkpt lat="47.24476" lon="6.11812">
        <ele>396.3</ele>
        <time>2020-09-07T08:31:53.176Z</time>
      </trkpt>
      <trkpt lat="47.24421" lon="6.11749">
        <ele>394.7</ele>
        <time>2020-09-07T08:32:05.698Z</time>
      </trkpt>
      <trkpt lat="47.24407" lon="6.11732">
        <ele>393.5</ele>
        <time>2020-09-07T08:32:07.888Z</time>
      </trkpt>
      <trkpt lat="47.24399" lon="6.11717">
        <ele>393.3</ele>
        <time>2020-09-07T08:32:10.432Z</time>
      </trkpt>
      <trkpt lat="47.24384" lon="6.11682">
        <ele>393.1</ele>
        <time>2020-09-07T08:32:19.657Z</time>
      </trkpt>
      <trkpt lat="47.24345" lon="6.11569">
        <ele>393</ele>
        <time>2020-09-07T08:32:50.445Z</time>
      </trkpt>
      <trkpt lat="47.24338" lon="6.11551">
        <ele>393.7</ele>
        <time>2020-09-07T08:32:59.394Z</time>
      </trkpt>
      <trkpt lat="47.24334" lon="6.11539">
        <ele>393.9</ele>
        <time>2020-09-07T08:33:03.535Z</time>
      </trkpt>
      <trkpt lat="47.24258" lon="6.11372">
        <ele>393.6</ele>
        <time>2020-09-07T08:33:51.615Z</time>
      </trkpt>
      <trkpt lat="47.24224" lon="6.11285">
        <ele>392.5</ele>
        <time>2020-09-07T08:34:04.890Z</time>
      </trkpt>
      <trkpt lat="47.24123" lon="6.11003">
        <ele>389.9</ele>
        <time>2020-09-07T08:34:49.308Z</time>
      </trkpt>
      <trkpt lat="47.24128" lon="6.10991">
        <ele>394.5</ele>
        <time>2020-09-07T08:35:02.733Z</time>
      </trkpt>
      <trkpt lat="47.24137" lon="6.10979">
        <ele>395.4</ele>
        <time>2020-09-07T08:35:11.914Z</time>
      </trkpt>
      <trkpt lat="47.24145" lon="6.10973">
        <ele>396</ele>
        <time>2020-09-07T08:35:18.339Z</time>
      </trkpt>
      <trkpt lat="47.24162" lon="6.10967">
        <ele>396.9</ele>
        <time>2020-09-07T08:35:29.578Z</time>
      </trkpt>
      <trkpt lat="47.24172" lon="6.10961">
        <ele>404</ele>
        <time>2020-09-07T08:35:44.743Z</time>
      </trkpt>
      <trkpt lat="47.2419" lon="6.10941">
        <ele>406.8</ele>
        <time>2020-09-07T08:36:12.676Z</time>
      </trkpt>
      <trkpt lat="47.24232" lon="6.10913">
        <ele>421.4</ele>
        <time>2020-09-07T08:37:17.425Z</time>
      </trkpt>
      <trkpt lat="47.24257" lon="6.1089">
        <ele>427.6</ele>
        <time>2020-09-07T08:37:58.823Z</time>
      </trkpt>
      <trkpt lat="47.24282" lon="6.10872">
        <ele>430.8</ele>
        <time>2020-09-07T08:38:29.682Z</time>
      </trkpt>
      <trkpt lat="47.24291" lon="6.10863">
        <ele>431.6</ele>
        <time>2020-09-07T08:38:37.871Z</time>
      </trkpt>
      <trkpt lat="47.24297" lon="6.10855">
        <ele>432.2</ele>
        <time>2020-09-07T08:38:43.992Z</time>
      </trkpt>
      <trkpt lat="47.24301" lon="6.10842">
        <ele>432.9</ele>
        <time>2020-09-07T08:38:51.214Z</time>
      </trkpt>
      <trkpt lat="47.24306" lon="6.10806">
        <ele>440.5</ele>
        <time>2020-09-07T08:39:26.250Z</time>
      </trkpt>
      <trkpt lat="47.2431" lon="6.10795">
        <ele>440.8</ele>
        <time>2020-09-07T08:39:30.816Z</time>
      </trkpt>
      <trkpt lat="47.24323" lon="6.10776">
        <ele>441.1</ele>
        <time>2020-09-07T08:39:38.662Z</time>
      </trkpt>
      <trkpt lat="47.24328" lon="6.10763">
        <ele>441.2</ele>
        <time>2020-09-07T08:39:42.722Z</time>
      </trkpt>
      <trkpt lat="47.2433" lon="6.10747">
        <ele>442.1</ele>
        <time>2020-09-07T08:39:51.582Z</time>
      </trkpt>
      <trkpt lat="47.24331" lon="6.10744">
        <ele>442.5</ele>
        <time>2020-09-07T08:39:54.768Z</time>
      </trkpt>
      <trkpt lat="47.24337" lon="6.10738">
        <ele>446.5</ele>
        <time>2020-09-07T08:40:04.954Z</time>
      </trkpt>
      <trkpt lat="47.24331" lon="6.10669">
        <ele>447.1</ele>
        <time>2020-09-07T08:40:24.414Z</time>
      </trkpt>
      <trkpt lat="47.2433" lon="6.10656">
        <ele>449.4</ele>
        <time>2020-09-07T08:40:36.889Z</time>
      </trkpt>
      <trkpt lat="47.24329" lon="6.1065">
        <ele>450.3</ele>
        <time>2020-09-07T08:40:42.780Z</time>
      </trkpt>
      <trkpt lat="47.24317" lon="6.10552">
        <ele>458.6</ele>
        <time>2020-09-07T08:42:05.052Z</time>
      </trkpt>
      <trkpt lat="47.24316" lon="6.10543">
        <ele>459.1</ele>
        <time>2020-09-07T08:42:09.989Z</time>
      </trkpt>
      <trkpt lat="47.24314" lon="6.10524">
        <ele>459.8</ele>
        <time>2020-09-07T08:42:18.502Z</time>
      </trkpt>
      <trkpt lat="47.24307" lon="6.1042">
        <ele>466.1</ele>
        <time>2020-09-07T08:43:19.071Z</time>
      </trkpt>
      <trkpt lat="47.24303" lon="6.10332">
        <ele>477.6</ele>
        <time>2020-09-07T08:44:43.166Z</time>
      </trkpt>
      <trkpt lat="47.24303" lon="6.10328">
        <ele>477.7</ele>
        <time>2020-09-07T08:44:44.658Z</time>
      </trkpt>
      <trkpt lat="47.24303" lon="6.10324">
        <ele>477.8</ele>
        <time>2020-09-07T08:44:46.150Z</time>
      </trkpt>
      <trkpt lat="47.24303" lon="6.10322">
        <ele>477.8</ele>
        <time>2020-09-07T08:44:46.645Z</time>
      </trkpt>
      <trkpt lat="47.24287" lon="6.10229">
        <ele>483.1</ele>
        <time>2020-09-07T08:45:38.844Z</time>
      </trkpt>
      <trkpt lat="47.24279" lon="6.1021">
        <ele>483.1</ele>
        <time>2020-09-07T08:45:44.371Z</time>
      </trkpt>
      <trkpt lat="47.24268" lon="6.10135">
        <ele>486.1</ele>
        <time>2020-09-07T08:46:19.273Z</time>
      </trkpt>
      <trkpt lat="47.24268" lon="6.10133">
        <ele>486.2</ele>
        <time>2020-09-07T08:46:20.296Z</time>
      </trkpt>
      <trkpt lat="47.24252" lon="6.10083">
        <ele>483.5</ele>
        <time>2020-09-07T08:46:25.220Z</time>
      </trkpt>
      <trkpt lat="47.24244" lon="6.10122">
        <ele>483.7</ele>
        <time>2020-09-07T08:46:36.006Z</time>
      </trkpt>
      <trkpt lat="47.24244" lon="6.10122">
        <ele>483.7</ele>
        <time>2020-09-07T08:46:36.006Z</time>
        <extensions>
          <visugpx:TrkExtension xmlns:visugpx="https://www.visugpx.com/editgpx/">
            <visugpx:node>4</visugpx:node>
            </visugpx:TrkExtension>
        </extensions>
      </trkpt>
      <trkpt lat="47.24252" lon="6.10083">
        <ele>483.5</ele>
        <time>2020-09-07T08:46:45.072Z</time>
      </trkpt>
      <trkpt lat="47.24241" lon="6.10045">
        <ele>483.5</ele>
        <time>2020-09-07T08:46:55.284Z</time>
      </trkpt>
      <trkpt lat="47.24227" lon="6.10002">
        <ele>483.1</ele>
        <time>2020-09-07T08:47:01.899Z</time>
      </trkpt>
      <trkpt lat="47.24203" lon="6.09953">
        <ele>480.8</ele>
        <time>2020-09-07T08:47:07.259Z</time>
      </trkpt>
      <trkpt lat="47.2418" lon="6.09889">
        <ele>477.5</ele>
        <time>2020-09-07T08:47:13.709Z</time>
      </trkpt>
      <trkpt lat="47.24162" lon="6.09853">
        <ele>474</ele>
        <time>2020-09-07T08:47:17.692Z</time>
      </trkpt>
      <trkpt lat="47.24139" lon="6.09816">
        <ele>471</ele>
        <time>2020-09-07T08:47:22.160Z</time>
      </trkpt>
      <trkpt lat="47.24098" lon="6.09736">
        <ele>466.4</ele>
        <time>2020-09-07T08:47:31.088Z</time>
      </trkpt>
      <trkpt lat="47.24091" lon="6.09713">
        <ele>467.5</ele>
        <time>2020-09-07T08:47:43.108Z</time>
      </trkpt>
      <trkpt lat="47.24063" lon="6.09641">
        <ele>461.7</ele>
        <time>2020-09-07T08:47:50.499Z</time>
      </trkpt>
      <trkpt lat="47.24043" lon="6.09575">
        <ele>466.5</ele>
        <time>2020-09-07T08:48:35.997Z</time>
      </trkpt>
      <trkpt lat="47.24022" lon="6.09501">
        <ele>468.4</ele>
        <time>2020-09-07T08:49:05.139Z</time>
      </trkpt>
      <trkpt lat="47.23967" lon="6.09403">
        <ele>477.3</ele>
        <time>2020-09-07T08:50:29.425Z</time>
      </trkpt>
      <trkpt lat="47.23939" lon="6.09379">
        <ele>476.5</ele>
        <time>2020-09-07T08:50:35.136Z</time>
      </trkpt>
      <trkpt lat="47.23919" lon="6.09321">
        <ele>479.6</ele>
        <time>2020-09-07T08:51:07.543Z</time>
      </trkpt>
      <trkpt lat="47.23909" lon="6.09288">
        <ele>475.6</ele>
        <time>2020-09-07T08:51:10.762Z</time>
      </trkpt>
      <trkpt lat="47.23908" lon="6.09237">
        <ele>481</ele>
        <time>2020-09-07T08:51:59.414Z</time>
      </trkpt>
      <trkpt lat="47.239" lon="6.09182">
        <ele>484.2</ele>
        <time>2020-09-07T08:52:30.643Z</time>
      </trkpt>
      <trkpt lat="47.23888" lon="6.09107">
        <ele>491</ele>
        <time>2020-09-07T08:53:40.626Z</time>
      </trkpt>
      <trkpt lat="47.23885" lon="6.09045">
        <ele>498.5</ele>
        <time>2020-09-07T08:54:39.897Z</time>
      </trkpt>
      <trkpt lat="47.23877" lon="6.08984">
        <ele>503</ele>
        <time>2020-09-07T08:55:22.621Z</time>
      </trkpt>
      <trkpt lat="47.23881" lon="6.08938">
        <ele>504.2</ele>
        <time>2020-09-07T08:55:40.235Z</time>
      </trkpt>
      <trkpt lat="47.23877" lon="6.08874">
        <ele>506.1</ele>
        <time>2020-09-07T08:56:06.665Z</time>
      </trkpt>
      <trkpt lat="47.23869" lon="6.08848">
        <ele>505.8</ele>
        <time>2020-09-07T08:56:10.471Z</time>
      </trkpt>
      <trkpt lat="47.23865" lon="6.08837">
        <ele>505.5</ele>
        <time>2020-09-07T08:56:11.806Z</time>
      </trkpt>
      <trkpt lat="47.23866" lon="6.08813">
        <ele>508.2</ele>
        <time>2020-09-07T08:56:34.734Z</time>
      </trkpt>
      <trkpt lat="47.23857" lon="6.08815">
        <ele>507.4</ele>
        <time>2020-09-07T08:56:35.928Z</time>
      </trkpt>
      <trkpt lat="47.23848" lon="6.08807">
        <ele>507.3</ele>
        <time>2020-09-07T08:56:38.158Z</time>
      </trkpt>
      <trkpt lat="47.23801" lon="6.08736">
        <ele>507</ele>
        <time>2020-09-07T08:57:01.106Z</time>
      </trkpt>
      <trkpt lat="47.23775" lon="6.08713">
        <ele>506.2</ele>
        <time>2020-09-07T08:57:06.354Z</time>
      </trkpt>
      <trkpt lat="47.2377" lon="6.08709">
        <ele>506.1</ele>
        <time>2020-09-07T08:57:07.443Z</time>
      </trkpt>
      <trkpt lat="47.23747" lon="6.08696">
        <ele>500.7</ele>
        <time>2020-09-07T08:57:10.675Z</time>
      </trkpt>
      <trkpt lat="47.23723" lon="6.08674">
        <ele>500.7</ele>
        <time>2020-09-07T08:57:20.968Z</time>
      </trkpt>
      <trkpt lat="47.23702" lon="6.08656">
        <ele>503.1</ele>
        <time>2020-09-07T08:57:43.705Z</time>
      </trkpt>
      <trkpt lat="47.23688" lon="6.08647">
        <ele>502.4</ele>
        <time>2020-09-07T08:57:45.885Z</time>
      </trkpt>
      <trkpt lat="47.23671" lon="6.08644">
        <ele>501.7</ele>
        <time>2020-09-07T08:57:48.443Z</time>
      </trkpt>
      <trkpt lat="47.2362" lon="6.08653">
        <ele>498.5</ele>
        <time>2020-09-07T08:57:54.828Z</time>
      </trkpt>
      <trkpt lat="47.23589" lon="6.08601">
        <ele>499</ele>
        <time>2020-09-07T08:58:13.784Z</time>
      </trkpt>
      <trkpt lat="47.23572" lon="6.08574">
        <ele>496.6</ele>
        <time>2020-09-07T08:58:17.064Z</time>
      </trkpt>
      <trkpt lat="47.23538" lon="6.08529">
        <ele>493.6</ele>
        <time>2020-09-07T08:58:22.602Z</time>
      </trkpt>
      <trkpt lat="47.23514" lon="6.0849">
        <ele>492.2</ele>
        <time>2020-09-07T08:58:28.028Z</time>
      </trkpt>
      <trkpt lat="47.23514" lon="6.0847">
        <ele>493.3</ele>
        <time>2020-09-07T08:58:38.878Z</time>
      </trkpt>
      <trkpt lat="47.23509" lon="6.08469">
        <ele>493.1</ele>
        <time>2020-09-07T08:58:39.641Z</time>
      </trkpt>
      <trkpt lat="47.23502" lon="6.08465">
        <ele>493</ele>
        <time>2020-09-07T08:58:41.156Z</time>
      </trkpt>
      <trkpt lat="47.23491" lon="6.08454">
        <ele>486.1</ele>
        <time>2020-09-07T08:58:42.900Z</time>
      </trkpt>
      <trkpt lat="47.23481" lon="6.08443">
        <ele>486</ele>
        <time>2020-09-07T08:58:45.601Z</time>
      </trkpt>
      <trkpt lat="47.23484" lon="6.08435">
        <ele>486.4</ele>
        <time>2020-09-07T08:58:49.966Z</time>
      </trkpt>
      <trkpt lat="47.23487" lon="6.08421">
        <ele>487.2</ele>
        <time>2020-09-07T08:58:57.882Z</time>
      </trkpt>
      <trkpt lat="47.23487" lon="6.08399">
        <ele>488</ele>
        <time>2020-09-07T08:59:07.619Z</time>
      </trkpt>
      <trkpt lat="47.23484" lon="6.08373">
        <ele>488</ele>
        <time>2020-09-07T08:59:14.140Z</time>
      </trkpt>
      <trkpt lat="47.23471" lon="6.08314">
        <ele>490.1</ele>
        <time>2020-09-07T08:59:40.931Z</time>
      </trkpt>
      <trkpt lat="47.23448" lon="6.08272">
        <ele>489.7</ele>
        <time>2020-09-07T08:59:48.557Z</time>
      </trkpt>
      <trkpt lat="47.2339" lon="6.08178">
        <ele>487.2</ele>
        <time>2020-09-07T09:00:03.066Z</time>
      </trkpt>
      <trkpt lat="47.23371" lon="6.08174">
        <ele>485.9</ele>
        <time>2020-09-07T09:00:05.584Z</time>
      </trkpt>
      <trkpt lat="47.23354" lon="6.08182">
        <ele>485</ele>
        <time>2020-09-07T09:00:08.030Z</time>
      </trkpt>
      <trkpt lat="47.23351" lon="6.08169">
        <ele>484.6</ele>
        <time>2020-09-07T09:00:09.397Z</time>
      </trkpt>
      <trkpt lat="47.23344" lon="6.08115">
        <ele>487.1</ele>
        <time>2020-09-07T09:00:36.138Z</time>
      </trkpt>
      <trkpt lat="47.23345" lon="6.08112">
        <ele>487.1</ele>
        <time>2020-09-07T09:00:36.964Z</time>
      </trkpt>
      <trkpt lat="47.23323" lon="6.08042">
        <ele>480.9</ele>
        <time>2020-09-07T09:00:43.836Z</time>
      </trkpt>
      <trkpt lat="47.23327" lon="6.08037">
        <ele>481.2</ele>
        <time>2020-09-07T09:00:47.341Z</time>
      </trkpt>
      <trkpt lat="47.23325" lon="6.08017">
        <ele>482</ele>
        <time>2020-09-07T09:00:56.582Z</time>
      </trkpt>
      <trkpt lat="47.2334" lon="6.07948">
        <ele>488</ele>
        <time>2020-09-07T09:01:55.850Z</time>
      </trkpt>
      <trkpt lat="47.23345" lon="6.07884">
        <ele>485.5</ele>
        <time>2020-09-07T09:02:01.516Z</time>
      </trkpt>
      <trkpt lat="47.23349" lon="6.07854">
        <ele>484.9</ele>
        <time>2020-09-07T09:02:05.012Z</time>
      </trkpt>
      <trkpt lat="47.23361" lon="6.07808">
        <ele>484.2</ele>
        <time>2020-09-07T09:02:11.168Z</time>
      </trkpt>
      <trkpt lat="47.23368" lon="6.07771">
        <ele>484.5</ele>
        <time>2020-09-07T09:02:21.783Z</time>
      </trkpt>
      <trkpt lat="47.23376" lon="6.07697">
        <ele>485</ele>
        <time>2020-09-07T09:02:42.142Z</time>
      </trkpt>
      <trkpt lat="47.23379" lon="6.07685">
        <ele>485</ele>
        <time>2020-09-07T09:02:45.304Z</time>
      </trkpt>
      <trkpt lat="47.23377" lon="6.07684">
        <ele>485</ele>
        <time>2020-09-07T09:02:46.073Z</time>
      </trkpt>
      <trkpt lat="47.23375" lon="6.07679">
        <ele>485</ele>
        <time>2020-09-07T09:02:47.508Z</time>
      </trkpt>
      <trkpt lat="47.23375" lon="6.07676">
        <ele>485</ele>
        <time>2020-09-07T09:02:48.250Z</time>
      </trkpt>
      <trkpt lat="47.23375" lon="6.07674">
        <ele>485</ele>
        <time>2020-09-07T09:02:48.744Z</time>
      </trkpt>
      <trkpt lat="47.23376" lon="6.07671">
        <ele>485</ele>
        <time>2020-09-07T09:02:49.570Z</time>
      </trkpt>
      <trkpt lat="47.23377" lon="6.07639">
        <ele>484.2</ele>
        <time>2020-09-07T09:02:52.950Z</time>
      </trkpt>
      <trkpt lat="47.23378" lon="6.07631">
        <ele>484.1</ele>
        <time>2020-09-07T09:02:54.001Z</time>
      </trkpt>
      <trkpt lat="47.23379" lon="6.07618">
        <ele>483.9</ele>
        <time>2020-09-07T09:02:55.606Z</time>
      </trkpt>
      <trkpt lat="47.23381" lon="6.07604">
        <ele>483.8</ele>
        <time>2020-09-07T09:02:57.644Z</time>
      </trkpt>
      <trkpt lat="47.23383" lon="6.07592">
        <ele>483.6</ele>
        <time>2020-09-07T09:02:59.137Z</time>
      </trkpt>
      <trkpt lat="47.23394" lon="6.07534">
        <ele>482.1</ele>
        <time>2020-09-07T09:03:05.497Z</time>
      </trkpt>
      <trkpt lat="47.23395" lon="6.07514">
        <ele>481.8</ele>
        <time>2020-09-07T09:03:07.971Z</time>
      </trkpt>
      <trkpt lat="47.23394" lon="6.07495">
        <ele>479.5</ele>
        <time>2020-09-07T09:03:09.669Z</time>
      </trkpt>
      <trkpt lat="47.23389" lon="6.07467">
        <ele>478.5</ele>
        <time>2020-09-07T09:03:12.353Z</time>
      </trkpt>
      <trkpt lat="47.23392" lon="6.07464">
        <ele>478.4</ele>
        <time>2020-09-07T09:03:12.972Z</time>
      </trkpt>
      <trkpt lat="47.23394" lon="6.07447">
        <ele>477.5</ele>
        <time>2020-09-07T09:03:14.509Z</time>
      </trkpt>
      <trkpt lat="47.23397" lon="6.07368">
        <ele>468.5</ele>
        <time>2020-09-07T09:03:21.558Z</time>
      </trkpt>
      <trkpt lat="47.23402" lon="6.07333">
        <ele>462.3</ele>
        <time>2020-09-07T09:03:24.744Z</time>
      </trkpt>
      <trkpt lat="47.23404" lon="6.07327">
        <ele>462.3</ele>
        <time>2020-09-07T09:03:26.397Z</time>
      </trkpt>
      <trkpt lat="47.23409" lon="6.0732">
        <ele>462</ele>
        <time>2020-09-07T09:03:27.403Z</time>
      </trkpt>
      <trkpt lat="47.23433" lon="6.07308">
        <ele>463.3</ele>
        <time>2020-09-07T09:03:43.678Z</time>
      </trkpt>
      <trkpt lat="47.23443" lon="6.07299">
        <ele>462.6</ele>
        <time>2020-09-07T09:03:45.164Z</time>
      </trkpt>
      <trkpt lat="47.23446" lon="6.07291">
        <ele>462.1</ele>
        <time>2020-09-07T09:03:45.978Z</time>
      </trkpt>
      <trkpt lat="47.23447" lon="6.07279">
        <ele>461.6</ele>
        <time>2020-09-07T09:03:47.010Z</time>
      </trkpt>
      <trkpt lat="47.23437" lon="6.07241">
        <ele>456.8</ele>
        <time>2020-09-07T09:03:50.641Z</time>
      </trkpt>
      <trkpt lat="47.23431" lon="6.07188">
        <ele>454</ele>
        <time>2020-09-07T09:03:55.427Z</time>
      </trkpt>
      <trkpt lat="47.23426" lon="6.0717">
        <ele>452.9</ele>
        <time>2020-09-07T09:03:57.160Z</time>
      </trkpt>
      <trkpt lat="47.23398" lon="6.07107">
        <ele>441</ele>
        <time>2020-09-07T09:04:03.868Z</time>
      </trkpt>
      <trkpt lat="47.23389" lon="6.07077">
        <ele>436.8</ele>
        <time>2020-09-07T09:04:06.789Z</time>
      </trkpt>
      <trkpt lat="47.23387" lon="6.07049">
        <ele>434.8</ele>
        <time>2020-09-07T09:04:09.298Z</time>
      </trkpt>
      <trkpt lat="47.23388" lon="6.07046">
        <ele>434.8</ele>
        <time>2020-09-07T09:04:10.124Z</time>
      </trkpt>
      <trkpt lat="47.23382" lon="6.07039">
        <ele>433.9</ele>
        <time>2020-09-07T09:04:11.128Z</time>
      </trkpt>
      <trkpt lat="47.23382" lon="6.07036">
        <ele>433.8</ele>
        <time>2020-09-07T09:04:11.411Z</time>
      </trkpt>
      <trkpt lat="47.23376" lon="6.07016">
        <ele>432.6</ele>
        <time>2020-09-07T09:04:13.358Z</time>
      </trkpt>
      <trkpt lat="47.23367" lon="6.06987">
        <ele>427.3</ele>
        <time>2020-09-07T09:04:16.199Z</time>
      </trkpt>
      <trkpt lat="47.23361" lon="6.06965">
        <ele>426.4</ele>
        <time>2020-09-07T09:04:18.306Z</time>
      </trkpt>
      <trkpt lat="47.23357" lon="6.06939">
        <ele>425</ele>
        <time>2020-09-07T09:04:20.681Z</time>
      </trkpt>
      <trkpt lat="47.23333" lon="6.06873">
        <ele>407.2</ele>
        <time>2020-09-07T09:04:27.350Z</time>
      </trkpt>
      <trkpt lat="47.23324" lon="6.06805">
        <ele>402.6</ele>
        <time>2020-09-07T09:04:33.522Z</time>
      </trkpt>
      <trkpt lat="47.23325" lon="6.06766">
        <ele>401.4</ele>
        <time>2020-09-07T09:04:37.323Z</time>
      </trkpt>
      <trkpt lat="47.23329" lon="6.06718">
        <ele>389.7</ele>
        <time>2020-09-07T09:04:41.632Z</time>
      </trkpt>
      <trkpt lat="47.23331" lon="6.06703">
        <ele>387</ele>
        <time>2020-09-07T09:04:42.994Z</time>
      </trkpt>
      <trkpt lat="47.23336" lon="6.06678">
        <ele>388.2</ele>
        <time>2020-09-07T09:04:55.749Z</time>
      </trkpt>
      <trkpt lat="47.23333" lon="6.06661">
        <ele>381.6</ele>
        <time>2020-09-07T09:04:57.314Z</time>
      </trkpt>
      <trkpt lat="47.2333" lon="6.06653">
        <ele>376.8</ele>
        <time>2020-09-07T09:04:58.128Z</time>
      </trkpt>
      <trkpt lat="47.2332" lon="6.06656">
        <ele>375.3</ele>
        <time>2020-09-07T09:04:59.467Z</time>
      </trkpt>
      <trkpt lat="47.23315" lon="6.06651">
        <ele>372.5</ele>
        <time>2020-09-07T09:05:00.260Z</time>
      </trkpt>
      <trkpt lat="47.23309" lon="6.06656">
        <ele>371.6</ele>
        <time>2020-09-07T09:05:01.165Z</time>
      </trkpt>
      <trkpt lat="47.2331" lon="6.06651">
        <ele>371.1</ele>
        <time>2020-09-07T09:05:01.629Z</time>
      </trkpt>
      <trkpt lat="47.23309" lon="6.06637">
        <ele>368.5</ele>
        <time>2020-09-07T09:05:02.883Z</time>
      </trkpt>
      <trkpt lat="47.23312" lon="6.06625">
        <ele>367.2</ele>
        <time>2020-09-07T09:05:04.022Z</time>
      </trkpt>
      <trkpt lat="47.23309" lon="6.06629">
        <ele>367.3</ele>
        <time>2020-09-07T09:05:05.927Z</time>
      </trkpt>
      <trkpt lat="47.23299" lon="6.06646">
        <ele>367.9</ele>
        <time>2020-09-07T09:05:14.614Z</time>
      </trkpt>
      <trkpt lat="47.23273" lon="6.06681">
        <ele>375.7</ele>
        <time>2020-09-07T09:06:04.087Z</time>
      </trkpt>
      <trkpt lat="47.2326" lon="6.06703">
        <ele>377.8</ele>
        <time>2020-09-07T09:06:24.012Z</time>
      </trkpt>
      <trkpt lat="47.23248" lon="6.06719">
        <ele>365.3</ele>
        <time>2020-09-07T09:06:26.136Z</time>
      </trkpt>
      <trkpt lat="47.23214" lon="6.06744">
        <ele>363.6</ele>
        <time>2020-09-07T09:06:31.614Z</time>
      </trkpt>
      <trkpt lat="47.23199" lon="6.0675">
        <ele>361.2</ele>
        <time>2020-09-07T09:06:33.654Z</time>
      </trkpt>
      <trkpt lat="47.23191" lon="6.06752">
        <ele>367</ele>
        <time>2020-09-07T09:06:45.050Z</time>
      </trkpt>
      <trkpt lat="47.23173" lon="6.06757">
        <ele>362.4</ele>
        <time>2020-09-07T09:06:47.453Z</time>
      </trkpt>
      <trkpt lat="47.23166" lon="6.06765">
        <ele>359.4</ele>
        <time>2020-09-07T09:06:48.616Z</time>
      </trkpt>
      <trkpt lat="47.23154" lon="6.06787">
        <ele>360.8</ele>
        <time>2020-09-07T09:07:02.988Z</time>
      </trkpt>
      <trkpt lat="47.2315" lon="6.06797">
        <ele>361.4</ele>
        <time>2020-09-07T09:07:09.042Z</time>
      </trkpt>
      <trkpt lat="47.23141" lon="6.06798">
        <ele>361.3</ele>
        <time>2020-09-07T09:07:10.917Z</time>
      </trkpt>
      <trkpt lat="47.23113" lon="6.06802">
        <ele>361</ele>
        <time>2020-09-07T09:07:16.792Z</time>
      </trkpt>
      <trkpt lat="47.23027" lon="6.06762">
        <ele>360.8</ele>
        <time>2020-09-07T09:07:48.552Z</time>
      </trkpt>
      <trkpt lat="47.23028" lon="6.06753">
        <ele>360.6</ele>
        <time>2020-09-07T09:07:49.559Z</time>
      </trkpt>
      <trkpt lat="47.23049" lon="6.06709">
        <ele>355.1</ele>
        <time>2020-09-07T09:07:54.350Z</time>
      </trkpt>
      <trkpt lat="47.23055" lon="6.06695">
        <ele>354.2</ele>
        <time>2020-09-07T09:07:55.825Z</time>
      </trkpt>
      <trkpt lat="47.23062" lon="6.06683">
        <ele>353.2</ele>
        <time>2020-09-07T09:07:57.234Z</time>
      </trkpt>
      <trkpt lat="47.23068" lon="6.06662">
        <ele>347.1</ele>
        <time>2020-09-07T09:07:59.264Z</time>
      </trkpt>
      <trkpt lat="47.23071" lon="6.06648">
        <ele>346.1</ele>
        <time>2020-09-07T09:08:00.572Z</time>
      </trkpt>
      <trkpt lat="47.23069" lon="6.06633">
        <ele>344.4</ele>
        <time>2020-09-07T09:08:01.934Z</time>
      </trkpt>
      <trkpt lat="47.23043" lon="6.06601">
        <ele>342.4</ele>
        <time>2020-09-07T09:08:06.257Z</time>
      </trkpt>
      <trkpt lat="47.23023" lon="6.0658">
        <ele>330.9</ele>
        <time>2020-09-07T09:08:09.480Z</time>
      </trkpt>
      <trkpt lat="47.22992" lon="6.0656">
        <ele>333.3</ele>
        <time>2020-09-07T09:08:34.450Z</time>
      </trkpt>
      <trkpt lat="47.22991" lon="6.06551">
        <ele>331.2</ele>
        <time>2020-09-07T09:08:35.262Z</time>
      </trkpt>
      <trkpt lat="47.2305" lon="6.06545">
        <ele>323.5</ele>
        <time>2020-09-07T09:08:43.021Z</time>
      </trkpt>
      <trkpt lat="47.23073" lon="6.06547">
        <ele>323.4</ele>
        <time>2020-09-07T09:08:50.888Z</time>
      </trkpt>
      <trkpt lat="47.23079" lon="6.06551">
        <ele>324.2</ele>
        <time>2020-09-07T09:08:58.774Z</time>
      </trkpt>
      <trkpt lat="47.23097" lon="6.06554">
        <ele>319.7</ele>
        <time>2020-09-07T09:09:01.150Z</time>
      </trkpt>
      <trkpt lat="47.23108" lon="6.0656">
        <ele>319.7</ele>
        <time>2020-09-07T09:09:05.422Z</time>
      </trkpt>
      <trkpt lat="47.23118" lon="6.06579">
        <ele>320.5</ele>
        <time>2020-09-07T09:09:15.748Z</time>
      </trkpt>
      <trkpt lat="47.23122" lon="6.0658">
        <ele>320</ele>
        <time>2020-09-07T09:09:16.280Z</time>
      </trkpt>
      <trkpt lat="47.23132" lon="6.06569">
        <ele>318.3</ele>
        <time>2020-09-07T09:09:17.918Z</time>
      </trkpt>
      <trkpt lat="47.23135" lon="6.06558">
        <ele>317.2</ele>
        <time>2020-09-07T09:09:18.974Z</time>
      </trkpt>
      <trkpt lat="47.23137" lon="6.06532">
        <ele>313.9</ele>
        <time>2020-09-07T09:09:21.305Z</time>
      </trkpt>
      <trkpt lat="47.23133" lon="6.06508">
        <ele>311.6</ele>
        <time>2020-09-07T09:09:23.506Z</time>
      </trkpt>
      <trkpt lat="47.23133" lon="6.0649">
        <ele>297.9</ele>
        <time>2020-09-07T09:09:25.110Z</time>
      </trkpt>
      <trkpt lat="47.23142" lon="6.06458">
        <ele>294.7</ele>
        <time>2020-09-07T09:09:28.196Z</time>
      </trkpt>
      <trkpt lat="47.2316" lon="6.06417">
        <ele>289.3</ele>
        <time>2020-09-07T09:09:32.545Z</time>
      </trkpt>
      <trkpt lat="47.23177" lon="6.06394">
        <ele>288.9</ele>
        <time>2020-09-07T09:09:36.977Z</time>
      </trkpt>
      <trkpt lat="47.23186" lon="6.06384">
        <ele>288.9</ele>
        <time>2020-09-07T09:09:41.083Z</time>
      </trkpt>
      <trkpt lat="47.23194" lon="6.06367">
        <ele>288</ele>
        <time>2020-09-07T09:09:42.804Z</time>
      </trkpt>
      <trkpt lat="47.232" lon="6.06348">
        <ele>286.9</ele>
        <time>2020-09-07T09:09:44.671Z</time>
      </trkpt>
      <trkpt lat="47.23205" lon="6.06312">
        <ele>277.9</ele>
        <time>2020-09-07T09:09:47.945Z</time>
      </trkpt>
      <trkpt lat="47.23208" lon="6.06293">
        <ele>277.1</ele>
        <time>2020-09-07T09:09:49.616Z</time>
      </trkpt>
      <trkpt lat="47.2321" lon="6.06282">
        <ele>276.5</ele>
        <time>2020-09-07T09:09:50.631Z</time>
      </trkpt>
      <trkpt lat="47.23216" lon="6.0624">
        <ele>269.3</ele>
        <time>2020-09-07T09:09:54.454Z</time>
      </trkpt>
      <trkpt lat="47.23227" lon="6.06212">
        <ele>268.3</ele>
        <time>2020-09-07T09:09:57.598Z</time>
      </trkpt>
      <trkpt lat="47.23236" lon="6.06199">
        <ele>267.3</ele>
        <time>2020-09-07T09:09:59.252Z</time>
      </trkpt>
      <trkpt lat="47.23242" lon="6.06185">
        <ele>265.9</ele>
        <time>2020-09-07T09:10:00.727Z</time>
      </trkpt>
      <trkpt lat="47.2324" lon="6.06146">
        <ele>260.6</ele>
        <time>2020-09-07T09:10:04.211Z</time>
      </trkpt>
      <trkpt lat="47.23232" lon="6.061">
        <ele>256.7</ele>
        <time>2020-09-07T09:10:08.442Z</time>
      </trkpt>
      <trkpt lat="47.23231" lon="6.06071">
        <ele>252.7</ele>
        <time>2020-09-07T09:10:11.029Z</time>
      </trkpt>
      <trkpt lat="47.23234" lon="6.06068">
        <ele>252.6</ele>
        <time>2020-09-07T09:10:11.648Z</time>
      </trkpt>
      <trkpt lat="47.23223" lon="6.06055">
        <ele>253.1</ele>
        <time>2020-09-07T09:10:19.253Z</time>
      </trkpt>
      <trkpt lat="47.23219" lon="6.06044">
        <ele>253.1</ele>
        <time>2020-09-07T09:10:22.338Z</time>
      </trkpt>
      <trkpt lat="47.23209" lon="6.06015">
        <ele>252.7</ele>
        <time>2020-09-07T09:10:26.539Z</time>
      </trkpt>
      <trkpt lat="47.23195" lon="6.05993">
        <ele>250.9</ele>
        <time>2020-09-07T09:10:29.225Z</time>
      </trkpt>
      <trkpt lat="47.23192" lon="6.0599">
        <ele>251</ele>
        <time>2020-09-07T09:10:30.991Z</time>
      </trkpt>
      <trkpt lat="47.23218" lon="6.05943">
        <ele>249.5</ele>
        <time>2020-09-07T09:10:37.410Z</time>
      </trkpt>
      <trkpt lat="47.23179" lon="6.05911">
        <ele>247.3</ele>
        <time>2020-09-07T09:10:43.590Z</time>
      </trkpt>
      <trkpt lat="47.23139" lon="6.05877">
        <ele>249.3</ele>
        <time>2020-09-07T09:11:11.463Z</time>
      </trkpt>
      <trkpt lat="47.23126" lon="6.05866">
        <ele>249.2</ele>
        <time>2020-09-07T09:11:16.416Z</time>
      </trkpt>
      <trkpt lat="47.23114" lon="6.05856">
        <ele>248.9</ele>
        <time>2020-09-07T09:11:18.929Z</time>
      </trkpt>
      <trkpt lat="47.23099" lon="6.05846">
        <ele>247.9</ele>
        <time>2020-09-07T09:11:21.001Z</time>
      </trkpt>
      <trkpt lat="47.23075" lon="6.05824">
        <ele>247.6</ele>
        <time>2020-09-07T09:11:26.909Z</time>
      </trkpt>
      <trkpt lat="47.23077" lon="6.05819">
        <ele>247.9</ele>
        <time>2020-09-07T09:11:29.936Z</time>
      </trkpt>
      <trkpt lat="47.2306" lon="6.05804">
        <ele>249.8</ele>
        <time>2020-09-07T09:11:47.976Z</time>
      </trkpt>
      <trkpt lat="47.23066" lon="6.05788">
        <ele>248.7</ele>
        <time>2020-09-07T09:11:49.605Z</time>
      </trkpt>
      <trkpt lat="47.23106" lon="6.05823">
        <ele>244.3</ele>
        <time>2020-09-07T09:11:55.709Z</time>
      </trkpt>
      <trkpt lat="47.23157" lon="6.05717">
        <ele>243.3</ele>
        <time>2020-09-07T09:12:13.970Z</time>
      </trkpt>
      <trkpt lat="47.23097" lon="6.05671">
        <ele>242.3</ele>
        <time>2020-09-07T09:12:27.370Z</time>
      </trkpt>
      <trkpt lat="47.23093" lon="6.05665">
        <ele>242.6</ele>
        <time>2020-09-07T09:12:31.067Z</time>
      </trkpt>
      <trkpt lat="47.23089" lon="6.05656">
        <ele>242.7</ele>
        <time>2020-09-07T09:12:34.108Z</time>
      </trkpt>
      <trkpt lat="47.23089" lon="6.05611">
        <ele>243.6</ele>
        <time>2020-09-07T09:12:49.345Z</time>
      </trkpt>
      <trkpt lat="47.23091" lon="6.05607">
        <ele>243.6</ele>
        <time>2020-09-07T09:12:50.573Z</time>
      </trkpt>
      <trkpt lat="47.23112" lon="6.05606">
        <ele>244</ele>
        <time>2020-09-07T09:12:59.840Z</time>
      </trkpt>
      <trkpt lat="47.23131" lon="6.05602">
        <ele>244.6</ele>
        <time>2020-09-07T09:13:09.633Z</time>
      </trkpt>
      <trkpt lat="47.23144" lon="6.05615">
        <ele>244.6</ele>
        <time>2020-09-07T09:13:15.354Z</time>
      </trkpt>
      <trkpt lat="47.23157" lon="6.05629">
        <ele>244.3</ele>
        <time>2020-09-07T09:13:18.399Z</time>
      </trkpt>
      <trkpt lat="47.23173" lon="6.05644">
        <ele>248.9</ele>
        <time>2020-09-07T09:13:45.037Z</time>
      </trkpt>
      <trkpt lat="47.23175" lon="6.05647">
        <ele>248.6</ele>
        <time>2020-09-07T09:13:45.412Z</time>
      </trkpt>
      <trkpt lat="47.23194" lon="6.05671">
        <ele>244.8</ele>
        <time>2020-09-07T09:13:48.696Z</time>
      </trkpt>
      <trkpt lat="47.23204" lon="6.05698">
        <ele>245.2</ele>
        <time>2020-09-07T09:13:57.918Z</time>
      </trkpt>
      <trkpt lat="47.23215" lon="6.05768">
        <ele>244.6</ele>
        <time>2020-09-07T09:14:07.892Z</time>
      </trkpt>
      <trkpt lat="47.23234" lon="6.05789">
        <ele>244.4</ele>
        <time>2020-09-07T09:14:13.005Z</time>
      </trkpt>
      <trkpt lat="47.23264" lon="6.05823">
        <ele>243.7</ele>
        <time>2020-09-07T09:14:20.172Z</time>
      </trkpt>
      <trkpt lat="47.23305" lon="6.05867">
        <ele>244.1</ele>
        <time>2020-09-07T09:14:40.082Z</time>
      </trkpt>
      <trkpt lat="47.23328" lon="6.05886">
        <ele>244.2</ele>
        <time>2020-09-07T09:14:50.030Z</time>
      </trkpt>
      <trkpt lat="47.23384" lon="6.05922">
        <ele>243.4</ele>
        <time>2020-09-07T09:15:02.395Z</time>
      </trkpt>
      <trkpt lat="47.2341" lon="6.05932">
        <ele>243.1</ele>
        <time>2020-09-07T09:15:07.970Z</time>
      </trkpt>
      <trkpt lat="47.23528" lon="6.05956">
        <ele>243.5</ele>
        <time>2020-09-07T09:15:52.721Z</time>
      </trkpt>
      <trkpt lat="47.23562" lon="6.05971">
        <ele>243.3</ele>
        <time>2020-09-07T09:16:04.618Z</time>
      </trkpt>
      <trkpt lat="47.23643" lon="6.0601">
        <ele>244.4</ele>
        <time>2020-09-07T09:16:39.809Z</time>
      </trkpt>
      <trkpt lat="47.23661" lon="6.06019">
        <ele>244.6</ele>
        <time>2020-09-07T09:16:47.469Z</time>
      </trkpt>
      <trkpt lat="47.23682" lon="6.05996">
        <ele>249.7</ele>
        <time>2020-09-07T09:17:24.224Z</time>
      </trkpt>
      <trkpt lat="47.23692" lon="6.05984">
        <ele>252.1</ele>
        <time>2020-09-07T09:17:42.340Z</time>
      </trkpt>
      <trkpt lat="47.23705" lon="6.05974">
        <ele>254</ele>
        <time>2020-09-07T09:18:01.844Z</time>
      </trkpt>
      <trkpt lat="47.23716" lon="6.0597">
        <ele>254.9</ele>
        <time>2020-09-07T09:18:10.781Z</time>
      </trkpt>
      <trkpt lat="47.23742" lon="6.05968">
        <ele>255.6</ele>
        <time>2020-09-07T09:18:23.359Z</time>
      </trkpt>
      <trkpt lat="47.23759" lon="6.05971">
        <ele>261.8</ele>
        <time>2020-09-07T09:18:47.406Z</time>
      </trkpt>
      <trkpt lat="47.23768" lon="6.05976">
        <ele>261.5</ele>
        <time>2020-09-07T09:18:48.987Z</time>
      </trkpt>
      <trkpt lat="47.23796" lon="6.06002">
        <ele>254</ele>
        <time>2020-09-07T09:18:53.330Z</time>
      </trkpt>
      <trkpt lat="47.23808" lon="6.06007">
        <ele>255.4</ele>
        <time>2020-09-07T09:19:06.741Z</time>
      </trkpt>
      <trkpt lat="47.23888" lon="6.06019">
        <ele>264.2</ele>
        <time>2020-09-07T09:20:30.594Z</time>
      </trkpt>
      <trkpt lat="47.23901" lon="6.06019">
        <ele>265.4</ele>
        <time>2020-09-07T09:20:42.045Z</time>
      </trkpt>
      <trkpt lat="47.23914" lon="6.06024">
        <ele>265.7</ele>
        <time>2020-09-07T09:20:48.195Z</time>
      </trkpt>
      <trkpt lat="47.23915" lon="6.06019">
        <ele>266.5</ele>
        <time>2020-09-07T09:20:53.166Z</time>
        <extensions>
          <visugpx:TrkExtension xmlns:visugpx="https://www.visugpx.com/editgpx/">
            <visugpx:node>5</visugpx:node>
            </visugpx:TrkExtension>
        </extensions>
      </trkpt>
    </trkseg>
  </trk>
</gpx>